Wetterdaten: Dienstag, 18.08.2015
Datum Zeit Temp. Aussen +5cm Feuchte Auss BlattFeu 1 Luftdruck Regen Sonnenschein Regendauer Solar Windben
18.08.2015 00:00 13,4 C 12,2 C 99 % 15 lf 1012,0 hPa 0,0 l/m 0 min 2 min 0 W/m 14,6 km/h (3 Bft)
18.08.2015 00:02 13,4 C 12,2 C 99 % 15 lf 1012,0 hPa 0,0 l/m 0 min 2 min 0 W/m 16,7 km/h (3 Bft)
18.08.2015 00:05 13,4 C 12,2 C 99 % 15 lf 1012,0 hPa 0,0 l/m 0 min 2 min 0 W/m 18,8 km/h (3 Bft)
18.08.2015 00:08 13,4 C 12,2 C 99 % 15 lf 1012,0 hPa 0,0 l/m 0 min 2 min 0 W/m 18,8 km/h (3 Bft)
18.08.2015 00:10 13,4 C 12,2 C 99 % 15 lf 1012,0 hPa 0,0 l/m 0 min 2 min 0 W/m 25,1 km/h (4 Bft)
18.08.2015 00:12 13,4 C 12,2 C 99 % 15 lf 1012,0 hPa 0,0 l/m 0 min 2 min 0 W/m 20,9 km/h (4 Bft)
18.08.2015 00:14 13,4 C 12,2 C 99 % 15 lf 1012,0 hPa 0,0 l/m 0 min 2 min 0 W/m 16,7 km/h (3 Bft)
18.08.2015 00:16 13,4 C 12,2 C 99 % 15 lf 1012,0 hPa 0,0 l/m 0 min 2 min 0 W/m 14,6 km/h (3 Bft)
18.08.2015 00:18 13,4 C 12,2 C 99 % 15 lf 1012,0 hPa 0,0 l/m 0 min 2 min 0 W/m 14,6 km/h (3 Bft)
18.08.2015 00:20 13,4 C 12,2 C 99 % 15 lf 1012,0 hPa 0,0 l/m 0 min 2 min 0 W/m 14,6 km/h (3 Bft)
18.08.2015 00:22 13,4 C 12,2 C 99 % 15 lf 1011,9 hPa 0,0 l/m 0 min 2 min 0 W/m 23,0 km/h (4 Bft)
18.08.2015 00:24 13,4 C 12,2 C 99 % 15 lf 1011,9 hPa 0,0 l/m 0 min 2 min 0 W/m 18,8 km/h (3 Bft)
18.08.2015 00:26 13,4 C 12,2 C 99 % 15 lf 1011,9 hPa 0,0 l/m 0 min 2 min 0 W/m 20,9 km/h (4 Bft)
18.08.2015 00:28 13,4 C 12,2 C 99 % 15 lf 1012,0 hPa 0,0 l/m 0 min 2 min 0 W/m 16,7 km/h (3 Bft)
18.08.2015 00:30 13,4 C 12,2 C 99 % 15 lf 1012,0 hPa 0,0 l/m 0 min 2 min 0 W/m 25,1 km/h (4 Bft)
18.08.2015 00:32 13,4 C 12,2 C 99 % 15 lf 1012,0 hPa 0,0 l/m 0 min 2 min 0 W/m 16,7 km/h (3 Bft)
18.08.2015 00:34 13,4 C 12,2 C 99 % 15 lf 1012,0 hPa 0,0 l/m 0 min 2 min 0 W/m 16,7 km/h (3 Bft)
18.08.2015 00:36 13,4 C 12,2 C 99 % 15 lf 1012,0 hPa 0,0 l/m 0 min 0 min 0 W/m 14,6 km/h (3 Bft)
18.08.2015 00:38 13,4 C 12,2 C 99 % 15 lf 1012,0 hPa 0,0 l/m 0 min 2 min 0 W/m 12,6 km/h (3 Bft)
18.08.2015 00:40 13,4 C 12,2 C 99 % 15 lf 1012,0 hPa 0,0 l/m 0 min 2 min 0 W/m 14,6 km/h (3 Bft)
18.08.2015 00:42 13,4 C 12,2 C 99 % 15 lf 1012,0 hPa 0,0 l/m 0 min 2 min 0 W/m 16,7 km/h (3 Bft)
18.08.2015 00:44 13,4 C 12,2 C 99 % 15 lf 1012,1 hPa 0,0 l/m 0 min 2 min 0 W/m 14,6 km/h (3 Bft)
18.08.2015 00:46 13,4 C 12,2 C 99 % 15 lf 1012,1 hPa 0,0 l/m 0 min 2 min 0 W/m 16,7 km/h (3 Bft)
18.08.2015 00:48 13,4 C 12,2 C 99 % 15 lf 1012,1 hPa 0,0 l/m 0 min 2 min 0 W/m 18,8 km/h (3 Bft)
18.08.2015 00:50 13,4 C 12,2 C 99 % 15 lf 1012,2 hPa 0,0 l/m 0 min 2 min 0 W/m 20,9 km/h (4 Bft)
18.08.2015 00:52 13,4 C 12,2 C 99 % 15 lf 1012,0 hPa 0,0 l/m 0 min 2 min 0 W/m 18,8 km/h (3 Bft)
18.08.2015 00:54 13,4 C 12,2 C 99 % 15 lf 1012,0 hPa 0,0 l/m 0 min 2 min 0 W/m 18,8 km/h (3 Bft)
18.08.2015 00:56 13,4 C 12,2 C 99 % 15 lf 1012,0 hPa 0,0 l/m 0 min 2 min 0 W/m 23,0 km/h (4 Bft)
18.08.2015 00:58 13,4 C 12,2 C 99 % 15 lf 1012,0 hPa 0,0 l/m 0 min 2 min 0 W/m 16,7 km/h (3 Bft)
18.08.2015 01:00 13,4 C 12,2 C 99 % 15 lf 1012,0 hPa 0,0 l/m 0 min 2 min 0 W/m 18,8 km/h (3 Bft)
18.08.2015 01:02 13,4 C 12,2 C 99 % 15 lf 1012,1 hPa 0,0 l/m 0 min 2 min 0 W/m 20,9 km/h (4 Bft)
18.08.2015 01:04 13,4 C 12,2 C 99 % 15 lf 1012,1 hPa 0,0 l/m 0 min 2 min 0 W/m 20,9 km/h (4 Bft)
18.08.2015 01:06 13,4 C 12,2 C 99 % 15 lf 1012,1 hPa 0,0 l/m 0 min 2 min 0 W/m 18,8 km/h (3 Bft)
18.08.2015 01:08 13,4 C 12,2 C 99 % 15 lf 1012,0 hPa 0,0 l/m 0 min 2 min 0 W/m 25,1 km/h (4 Bft)
18.08.2015 01:10 13,4 C 12,2 C 99 % 15 lf 1012,0 hPa 0,0 l/m 0 min 2 min 0 W/m 18,8 km/h (3 Bft)
18.08.2015 01:12 13,4 C 12,2 C 99 % 15 lf 1012,0 hPa 0,2 l/m 0 min 2 min 0 W/m 16,7 km/h (3 Bft)
18.08.2015 01:14 13,4 C 12,2 C 99 % 15 lf 1012,0 hPa 0,0 l/m 0 min 2 min 0 W/m 18,8 km/h (3 Bft)
18.08.2015 01:16 13,4 C 12,2 C 99 % 15 lf 1012,1 hPa 0,0 l/m 0 min 2 min 0 W/m 18,8 km/h (3 Bft)
18.08.2015 01:18 13,4 C 12,2 C 99 % 15 lf 1012,1 hPa 0,0 l/m 0 min 2 min 0 W/m 20,9 km/h (4 Bft)
18.08.2015 01:20 13,4 C 12,2 C 99 % 15 lf 1012,1 hPa 0,0 l/m 0 min 2 min 0 W/m 18,8 km/h (3 Bft)
18.08.2015 01:22 13,4 C 12,2 C 99 % 15 lf 1012,2 hPa 0,0 l/m 0 min 2 min 0 W/m 14,6 km/h (3 Bft)
18.08.2015 01:24 13,4 C 12,2 C 99 % 15 lf 1012,1 hPa 0,0 l/m 0 min 2 min 0 W/m 12,6 km/h (3 Bft)
18.08.2015 01:26 13,4 C 12,2 C 99 % 15 lf 1012,0 hPa 0,0 l/m 0 min 2 min 0 W/m 18,8 km/h (3 Bft)
18.08.2015 01:28 13,4 C 12,2 C 99 % 15 lf 1012,0 hPa 0,0 l/m 0 min 2 min 0 W/m 18,8 km/h (3 Bft)
18.08.2015 01:30 13,4 C 12,2 C 99 % 15 lf 1012,0 hPa 0,0 l/m 0 min 2 min 0 W/m 18,8 km/h (3 Bft)
18.08.2015 01:32 13,4 C 12,2 C 99 % 15 lf 1012,0 hPa 0,0 l/m 0 min 2 min 0 W/m 20,9 km/h (4 Bft)
18.08.2015 01:34 13,4 C 12,2 C 99 % 15 lf 1012,0 hPa 0,0 l/m 0 min 2 min 0 W/m 16,7 km/h (3 Bft)
18.08.2015 01:36 13,4 C 12,2 C 99 % 15 lf 1012,0 hPa 0,0 l/m 0 min 2 min 0 W/m 14,6 km/h (3 Bft)
18.08.2015 01:38 13,4 C 12,2 C 99 % 15 lf 1012,0 hPa 0,0 l/m 0 min 2 min 0 W/m 23,0 km/h (4 Bft)
18.08.2015 01:40 13,3 C 12,2 C 99 % 15 lf 1012,0 hPa 0,2 l/m 0 min 2 min 0 W/m 18,8 km/h (3 Bft)
18.08.2015 01:42 13,3 C 12,2 C 99 % 15 lf 1012,0 hPa 0,0 l/m 0 min 2 min 0 W/m 18,8 km/h (3 Bft)
18.08.2015 01:44 13,3 C 12,2 C 99 % 15 lf 1012,0 hPa 0,0 l/m 0 min 2 min 0 W/m 23,0 km/h (4 Bft)
18.08.2015 01:46 13,3 C 12,2 C 99 % 15 lf 1012,0 hPa 0,0 l/m 0 min 2 min 0 W/m 20,9 km/h (4 Bft)
18.08.2015 01:48 13,3 C 12,2 C 99 % 15 lf 1012,0 hPa 0,0 l/m 0 min 2 min 0 W/m 23,0 km/h (4 Bft)
18.08.2015 01:50 13,3 C 12,2 C 99 % 15 lf 1012,0 hPa 0,0 l/m 0 min 2 min 0 W/m 23,0 km/h (4 Bft)
18.08.2015 01:52 13,3 C 12,2 C 99 % 15 lf 1011,9 hPa 0,0 l/m 0 min 2 min 0 W/m 20,9 km/h (4 Bft)
18.08.2015 01:54 13,2 C 12,2 C 99 % 15 lf 1012,0 hPa 0,0 l/m 0 min 2 min 0 W/m 16,7 km/h (3 Bft)
18.08.2015 01:56 13,2 C 12,2 C 99 % 15 lf 1012,0 hPa 0,0 l/m 0 min 2 min 0 W/m 23,0 km/h (4 Bft)
18.08.2015 01:58 13,2 C 12,2 C 99 % 15 lf 1011,9 hPa 0,0 l/m 0 min 2 min 0 W/m 14,6 km/h (3 Bft)
18.08.2015 02:00 13,2 C 12,2 C 99 % 15 lf 1011,9 hPa 0,0 l/m 0 min 2 min 0 W/m 16,7 km/h (3 Bft)
18.08.2015 02:02 13,2 C 12,2 C 99 % 15 lf 1011,9 hPa 0,0 l/m 0 min 2 min 0 W/m 16,7 km/h (3 Bft)
18.08.2015 02:04 13,2 C 12,2 C 99 % 15 lf 1011,9 hPa 0,0 l/m 0 min 2 min 0 W/m 14,6 km/h (3 Bft)
18.08.2015 02:06 13,2 C 12,2 C 99 % 15 lf 1011,9 hPa 0,0 l/m 0 min 2 min 0 W/m 12,6 km/h (3 Bft)
18.08.2015 02:08 13,2 C 12,2 C 99 % 15 lf 1012,0 hPa 0,0 l/m 0 min 2 min 0 W/m 23,0 km/h (4 Bft)
18.08.2015 02:10 13,2 C 12,2 C 99 % 15 lf 1012,0 hPa 0,0 l/m 0 min 2 min 0 W/m 16,7 km/h (3 Bft)
18.08.2015 02:12 13,1 C 12,2 C 99 % 15 lf 1011,9 hPa 0,0 l/m 0 min 2 min 0 W/m 16,7 km/h (3 Bft)
18.08.2015 02:14 13,1 C 11,7 C 99 % 15 lf 1011,9 hPa 0,0 l/m 0 min 2 min 0 W/m 20,9 km/h (4 Bft)
18.08.2015 02:16 13,1 C 11,7 C 99 % 15 lf 1011,9 hPa 0,0 l/m 0 min 2 min 0 W/m 23,0 km/h (4 Bft)
18.08.2015 02:18 13,1 C 11,7 C 99 % 15 lf 1012,0 hPa 0,0 l/m 0 min 2 min 0 W/m 25,1 km/h (4 Bft)
18.08.2015 02:20 13,0 C 11,7 C 99 % 15 lf 1011,9 hPa 0,0 l/m 0 min 2 min 0 W/m 20,9 km/h (4 Bft)
18.08.2015 02:22 13,0 C 11,7 C 99 % 15 lf 1012,0 hPa 0,0 l/m 0 min 2 min 0 W/m 27,2 km/h (4 Bft)
18.08.2015 02:24 13,0 C 11,7 C 99 % 15 lf 1011,9 hPa 0,0 l/m 0 min 2 min 0 W/m 23,0 km/h (4 Bft)
18.08.2015 02:26 12,9 C 11,7 C 99 % 15 lf 1011,9 hPa 0,0 l/m 0 min 2 min 0 W/m 23,0 km/h (4 Bft)
18.08.2015 02:28 12,9 C 11,7 C 99 % 15 lf 1011,9 hPa 0,0 l/m 0 min 2 min 0 W/m 18,8 km/h (3 Bft)
18.08.2015 02:30 12,9 C 11,7 C 99 % 15 lf 1011,9 hPa 0,0 l/m 0 min 2 min 0 W/m 18,8 km/h (3 Bft)
18.08.2015 02:32 12,9 C 11,7 C 99 % 15 lf 1011,9 hPa 0,0 l/m 0 min 2 min 0 W/m 20,9 km/h (4 Bft)
18.08.2015 02:34 12,9 C 11,7 C 99 % 15 lf 1012,0 hPa 0,0 l/m 0 min 2 min 0 W/m 14,6 km/h (3 Bft)
18.08.2015 02:36 12,9 C 11,7 C 99 % 15 lf 1012,0 hPa 0,0 l/m 0 min 2 min 0 W/m 18,8 km/h (3 Bft)
18.08.2015 02:38 12,9 C 11,7 C 99 % 15 lf 1012,1 hPa 0,0 l/m 0 min 2 min 0 W/m 14,6 km/h (3 Bft)
18.08.2015 02:40 12,9 C 11,7 C 99 % 15 lf 1012,0 hPa 0,0 l/m 0 min 2 min 0 W/m 20,9 km/h (4 Bft)
18.08.2015 02:42 12,9 C 11,7 C 99 % 15 lf 1012,1 hPa 0,2 l/m 0 min 2 min 0 W/m 20,9 km/h (4 Bft)
18.08.2015 02:44 12,9 C 11,7 C 99 % 15 lf 1012,1 hPa 0,0 l/m 0 min 2 min 0 W/m 14,6 km/h (3 Bft)
18.08.2015 02:46 12,9 C 11,7 C 99 % 15 lf 1012,1 hPa 0,0 l/m 0 min 2 min 0 W/m 12,6 km/h (3 Bft)
18.08.2015 02:48 12,8 C 11,7 C 99 % 15 lf 1012,1 hPa 0,0 l/m 0 min 2 min 0 W/m 23,0 km/h (4 Bft)
18.08.2015 02:50 12,8 C 11,7 C 99 % 15 lf 1012,1 hPa 0,0 l/m 0 min 2 min 0 W/m 23,0 km/h (4 Bft)
18.08.2015 02:52 12,8 C 11,7 C 99 % 15 lf 1012,1 hPa 0,0 l/m 0 min 2 min 0 W/m 20,9 km/h (4 Bft)
18.08.2015 02:54 12,8 C 11,7 C 99 % 15 lf 1012,1 hPa 0,0 l/m 0 min 2 min 0 W/m 16,7 km/h (3 Bft)
18.08.2015 02:56 12,8 C 11,7 C 99 % 15 lf 1012,0 hPa 0,0 l/m 0 min 2 min 0 W/m 16,7 km/h (3 Bft)
18.08.2015 02:58 12,8 C 11,7 C 99 % 15 lf 1012,0 hPa 0,0 l/m 0 min 2 min 0 W/m 12,6 km/h (3 Bft)
18.08.2015 03:00 12,8 C 11,7 C 99 % 15 lf 1012,0 hPa 0,0 l/m 0 min 2 min 0 W/m 16,7 km/h (3 Bft)
18.08.2015 03:02 12,8 C 11,7 C 99 % 15 lf 1011,9 hPa 0,0 l/m 0 min 2 min 0 W/m 18,8 km/h (3 Bft)
18.08.2015 03:04 12,8 C 11,7 C 99 % 15 lf 1011,9 hPa 0,0 l/m 0 min 2 min 0 W/m 20,9 km/h (4 Bft)
18.08.2015 03:06 12,8 C 11,7 C 99 % 15 lf 1011,9 hPa 0,0 l/m 0 min 2 min 0 W/m 16,7 km/h (3 Bft)
18.08.2015 03:08 12,8 C 11,7 C 99 % 15 lf 1011,9 hPa 0,0 l/m 0 min 2 min 0 W/m 25,1 km/h (4 Bft)
18.08.2015 03:10 12,7 C 11,7 C 99 % 15 lf 1011,9 hPa 0,0 l/m 0 min 2 min 0 W/m 16,7 km/h (3 Bft)
18.08.2015 03:12 12,7 C 11,7 C 99 % 15 lf 1011,9 hPa 0,0 l/m 0 min 2 min 0 W/m 20,9 km/h (4 Bft)
18.08.2015 03:14 12,7 C 11,7 C 99 % 15 lf 1011,8 hPa 0,0 l/m 0 min 2 min 0 W/m 16,7 km/h (3 Bft)
18.08.2015 03:16 12,7 C 11,7 C 99 % 15 lf 1011,8 hPa 0,0 l/m 0 min 2 min 0 W/m 14,6 km/h (3 Bft)
18.08.2015 03:18 12,7 C 11,7 C 99 % 15 lf 1011,8 hPa 0,0 l/m 0 min 0 min 0 W/m 20,9 km/h (4 Bft)
18.08.2015 03:20 12,7 C 11,7 C 99 % 15 lf 1011,8 hPa 0,0 l/m 0 min 2 min 0 W/m 25,1 km/h (4 Bft)
18.08.2015 03:22 12,7 C 11,7 C 99 % 15 lf 1011,9 hPa 0,0 l/m 0 min 2 min 0 W/m 18,8 km/h (3 Bft)
18.08.2015 03:24 12,7 C 11,7 C 99 % 15 lf 1011,9 hPa 0,0 l/m 0 min 0 min 0 W/m 20,9 km/h (4 Bft)
18.08.2015 03:26 12,7 C 11,7 C 99 % 15 lf 1011,9 hPa 0,0 l/m 0 min 0 min 0 W/m 18,8 km/h (3 Bft)
18.08.2015 03:28 12,7 C 11,7 C 99 % 15 lf 1011,8 hPa 0,0 l/m 0 min 0 min 0 W/m 16,7 km/h (3 Bft)
18.08.2015 03:30 12,7 C 11,7 C 99 % 15 lf 1011,8 hPa 0,0 l/m 0 min 2 min 0 W/m 20,9 km/h (4 Bft)
18.08.2015 03:32 12,7 C 11,7 C 99 % 15 lf 1011,8 hPa 0,0 l/m 0 min 0 min 0 W/m 25,1 km/h (4 Bft)
18.08.2015 03:34 12,7 C 11,7 C 99 % 15 lf 1011,8 hPa 0,0 l/m 0 min 2 min 0 W/m 18,8 km/h (3 Bft)
18.08.2015 03:36 12,7 C 11,7 C 99 % 15 lf 1011,9 hPa 0,0 l/m 0 min 2 min 0 W/m 23,0 km/h (4 Bft)
18.08.2015 03:38 12,7 C 11,7 C 99 % 15 lf 1012,0 hPa 0,0 l/m 0 min 2 min 0 W/m 20,9 km/h (4 Bft)
18.08.2015 03:40 12,7 C 11,7 C 99 % 15 lf 1012,0 hPa 0,0 l/m 0 min 0 min 0 W/m 16,7 km/h (3 Bft)
18.08.2015 03:42 12,7 C 11,7 C 99 % 15 lf 1012,0 hPa 0,0 l/m 0 min 0 min 0 W/m 14,6 km/h (3 Bft)
18.08.2015 03:44 12,7 C 11,7 C 99 % 15 lf 1012,0 hPa 0,0 l/m 0 min 0 min 0 W/m 16,7 km/h (3 Bft)
18.08.2015 03:46 12,7 C 11,7 C 99 % 15 lf 1011,9 hPa 0,0 l/m 0 min 0 min 0 W/m 18,8 km/h (3 Bft)
18.08.2015 03:48 12,7 C 11,7 C 99 % 15 lf 1011,9 hPa 0,0 l/m 0 min 2 min 0 W/m 16,7 km/h (3 Bft)
18.08.2015 03:50 12,7 C 11,7 C 99 % 15 lf 1011,9 hPa 0,0 l/m 0 min 0 min 0 W/m 12,6 km/h (3 Bft)
18.08.2015 03:52 12,7 C 11,7 C 99 % 15 lf 1011,9 hPa 0,0 l/m 0 min 0 min 0 W/m 20,9 km/h (4 Bft)
18.08.2015 03:54 12,7 C 11,7 C 99 % 15 lf 1011,9 hPa 0,0 l/m 0 min 0 min 0 W/m 20,9 km/h (4 Bft)
18.08.2015 03:56 12,7 C 11,7 C 99 % 15 lf 1011,9 hPa 0,0 l/m 0 min 0 min 0 W/m 16,7 km/h (3 Bft)
18.08.2015 03:58 12,6 C 11,7 C 99 % 15 lf 1011,9 hPa 0,0 l/m 0 min 0 min 0 W/m 23,0 km/h (4 Bft)
18.08.2015 04:00 12,7 C 11,7 C 99 % 15 lf 1011,8 hPa 0,0 l/m 0 min 0 min 0 W/m 20,9 km/h (4 Bft)
18.08.2015 04:02 12,7 C 11,7 C 99 % 15 lf 1011,9 hPa 0,0 l/m 0 min 0 min 0 W/m 20,9 km/h (4 Bft)
18.08.2015 04:04 12,7 C 11,7 C 99 % 15 lf 1011,9 hPa 0,0 l/m 0 min 0 min 0 W/m 20,9 km/h (4 Bft)
18.08.2015 04:06 12,7 C 11,7 C 99 % 15 lf 1011,9 hPa 0,0 l/m 0 min 0 min 0 W/m 20,9 km/h (4 Bft)
18.08.2015 04:08 12,7 C 11,7 C 99 % 15 lf 1011,9 hPa 0,0 l/m 0 min 0 min 0 W/m 25,1 km/h (4 Bft)
18.08.2015 04:10 12,7 C 11,7 C 99 % 15 lf 1011,9 hPa 0,0 l/m 0 min 0 min 0 W/m 20,9 km/h (4 Bft)
18.08.2015 04:12 12,7 C 11,7 C 99 % 15 lf 1011,9 hPa 0,0 l/m 0 min 0 min 0 W/m 20,9 km/h (4 Bft)
18.08.2015 04:14 12,6 C 11,7 C 99 % 15 lf 1011,9 hPa 0,0 l/m 0 min 0 min 0 W/m 20,9 km/h (4 Bft)
18.08.2015 04:16 12,6 C 11,7 C 99 % 15 lf 1011,9 hPa 0,0 l/m 0 min 0 min 0 W/m 18,8 km/h (3 Bft)
18.08.2015 04:18 12,6 C 11,7 C 99 % 15 lf 1011,9 hPa 0,0 l/m 0 min 0 min 0 W/m 18,8 km/h (3 Bft)
18.08.2015 04:20 12,6 C 11,7 C 99 % 15 lf 1012,0 hPa 0,0 l/m 0 min 0 min 0 W/m 16,7 km/h (3 Bft)
18.08.2015 04:22 12,6 C 11,7 C 99 % 15 lf 1012,0 hPa 0,0 l/m 0 min 0 min 0 W/m 18,8 km/h (3 Bft)
18.08.2015 04:24 12,6 C 11,7 C 99 % 15 lf 1012,1 hPa 0,0 l/m 0 min 0 min 0 W/m 18,8 km/h (3 Bft)
18.08.2015 04:26 12,6 C 11,7 C 99 % 15 lf 1012,1 hPa 0,0 l/m 0 min 0 min 0 W/m 14,6 km/h (3 Bft)
18.08.2015 04:28 12,6 C 11,7 C 99 % 15 lf 1012,0 hPa 0,0 l/m 0 min 0 min 0 W/m 16,7 km/h (3 Bft)
18.08.2015 04:30 12,6 C 11,7 C 99 % 15 lf 1012,1 hPa 0,0 l/m 0 min 0 min 0 W/m 12,6 km/h (3 Bft)
18.08.2015 04:32 12,6 C 11,7 C 99 % 15 lf 1012,1 hPa 0,0 l/m 0 min 0 min 0 W/m 16,7 km/h (3 Bft)
18.08.2015 04:34 12,6 C 11,7 C 99 % 15 lf 1012,1 hPa 0,0 l/m 0 min 0 min 0 W/m 18,8 km/h (3 Bft)
18.08.2015 04:36 12,6 C 11,7 C 99 % 15 lf 1012,1 hPa 0,0 l/m 0 min 0 min 0 W/m 18,8 km/h (3 Bft)
18.08.2015 04:38 12,6 C 11,7 C 99 % 15 lf 1012,1 hPa 0,0 l/m 0 min 0 min 0 W/m 16,7 km/h (3 Bft)
18.08.2015 04:40 12,6 C 11,7 C 99 % 15 lf 1012,1 hPa 0,0 l/m 0 min 0 min 0 W/m 14,6 km/h (3 Bft)
18.08.2015 04:42 12,6 C 11,7 C 99 % 15 lf 1012,1 hPa 0,0 l/m 0 min 0 min 0 W/m 12,6 km/h (3 Bft)
18.08.2015 04:44 12,6 C 11,7 C 99 % 15 lf 1012,1 hPa 0,0 l/m 0 min 0 min 0 W/m 18,8 km/h (3 Bft)
18.08.2015 04:46 12,6 C 11,7 C 99 % 15 lf 1012,2 hPa 0,0 l/m 0 min 0 min 0 W/m 18,8 km/h (3 Bft)
18.08.2015 04:48 12,6 C 11,7 C 99 % 15 lf 1012,1 hPa 0,0 l/m 0 min 0 min 0 W/m 16,7 km/h (3 Bft)
18.08.2015 04:50 12,6 C 11,7 C 99 % 15 lf 1012,1 hPa 0,0 l/m 0 min 2 min 0 W/m 12,6 km/h (3 Bft)
18.08.2015 04:52 12,6 C 11,7 C 99 % 15 lf 1012,1 hPa 0,0 l/m 0 min 0 min 0 W/m 14,6 km/h (3 Bft)
18.08.2015 04:54 12,6 C 11,7 C 99 % 15 lf 1012,1 hPa 0,0 l/m 0 min 0 min 0 W/m 14,6 km/h (3 Bft)
18.08.2015 04:56 12,6 C 11,7 C 99 % 15 lf 1012,0 hPa 0,0 l/m 0 min 0 min 0 W/m 20,9 km/h (4 Bft)
18.08.2015 04:58 12,6 C 11,7 C 99 % 15 lf 1012,0 hPa 0,0 l/m 0 min 0 min 0 W/m 18,8 km/h (3 Bft)
18.08.2015 05:00 12,5 C 11,7 C 99 % 15 lf 1012,0 hPa 0,0 l/m 0 min 0 min 0 W/m 16,7 km/h (3 Bft)
18.08.2015 05:02 12,5 C 11,7 C 99 % 15 lf 1012,1 hPa 0,0 l/m 0 min 0 min 0 W/m 12,6 km/h (3 Bft)
18.08.2015 05:04 12,5 C 11,7 C 99 % 15 lf 1012,1 hPa 0,0 l/m 0 min 0 min 0 W/m 16,7 km/h (3 Bft)
18.08.2015 05:06 12,5 C 11,7 C 99 % 15 lf 1012,1 hPa 0,0 l/m 0 min 0 min 0 W/m 16,7 km/h (3 Bft)
18.08.2015 05:08 12,5 C 11,7 C 99 % 15 lf 1012,0 hPa 0,0 l/m 0 min 0 min 0 W/m 14,6 km/h (3 Bft)
18.08.2015 05:10 12,5 C 11,7 C 99 % 15 lf 1012,0 hPa 0,0 l/m 0 min 0 min 0 W/m 16,7 km/h (3 Bft)
18.08.2015 05:12 12,5 C 11,7 C 99 % 15 lf 1012,0 hPa 0,0 l/m 0 min 0 min 0 W/m 16,7 km/h (3 Bft)
18.08.2015 05:14 12,5 C 11,7 C 99 % 15 lf 1012,0 hPa 0,0 l/m 0 min 0 min 0 W/m 20,9 km/h (4 Bft)
18.08.2015 05:16 12,4 C 11,7 C 99 % 15 lf 1011,9 hPa 0,0 l/m 0 min 0 min 0 W/m 20,9 km/h (4 Bft)
18.08.2015 05:18 12,4 C 11,7 C 99 % 15 lf 1012,0 hPa 0,0 l/m 0 min 0 min 0 W/m 16,7 km/h (3 Bft)
18.08.2015 05:20 12,4 C 11,7 C 99 % 15 lf 1012,1 hPa 0,0 l/m 0 min 0 min 0 W/m 18,8 km/h (3 Bft)
18.08.2015 05:22 12,4 C 11,7 C 99 % 15 lf 1012,1 hPa 0,0 l/m 0 min 0 min 0 W/m 14,6 km/h (3 Bft)
18.08.2015 05:24 12,4 C 11,7 C 99 % 15 lf 1012,0 hPa 0,0 l/m 0 min 0 min 0 W/m 14,6 km/h (3 Bft)
18.08.2015 05:26 12,4 C 11,7 C 99 % 15 lf 1012,0 hPa 0,0 l/m 0 min 0 min 0 W/m 16,7 km/h (3 Bft)
18.08.2015 05:28 12,4 C 11,7 C 99 % 15 lf 1012,1 hPa 0,0 l/m 0 min 0 min 0 W/m 16,7 km/h (3 Bft)
18.08.2015 05:30 12,4 C 11,7 C 99 % 15 lf 1012,1 hPa 0,0 l/m 0 min 0 min 0 W/m 12,6 km/h (3 Bft)
18.08.2015 05:32 12,4 C 11,7 C 99 % 15 lf 1012,1 hPa 0,0 l/m 0 min 0 min 0 W/m 12,6 km/h (3 Bft)
18.08.2015 05:34 12,4 C 11,7 C 99 % 15 lf 1012,0 hPa 0,0 l/m 0 min 0 min 0 W/m 20,9 km/h (4 Bft)
18.08.2015 05:36 12,4 C 11,7 C 99 % 15 lf 1012,1 hPa 0,0 l/m 0 min 0 min 0 W/m 18,8 km/h (3 Bft)
18.08.2015 05:38 12,4 C 11,7 C 99 % 15 lf 1012,1 hPa 0,0 l/m 0 min 0 min 0 W/m 14,6 km/h (3 Bft)
18.08.2015 05:40 12,4 C 11,7 C 99 % 15 lf 1012,1 hPa 0,0 l/m 0 min 0 min 0 W/m 14,6 km/h (3 Bft)
18.08.2015 05:42 12,3 C 11,7 C 99 % 15 lf 1012,1 hPa 0,0 l/m 0 min 0 min 0 W/m 20,9 km/h (4 Bft)
18.08.2015 05:44 12,3 C 11,7 C 99 % 15 lf 1012,1 hPa 0,0 l/m 0 min 0 min 0 W/m 12,6 km/h (3 Bft)
18.08.2015 05:46 12,3 C 11,7 C 99 % 15 lf 1012,1 hPa 0,0 l/m 0 min 0 min 0 W/m 16,7 km/h (3 Bft)
18.08.2015 05:48 12,3 C 11,7 C 99 % 15 lf 1012,1 hPa 0,0 l/m 0 min 0 min 0 W/m 18,8 km/h (3 Bft)
18.08.2015 05:50 12,3 C 11,7 C 99 % 15 lf 1012,1 hPa 0,0 l/m 0 min 0 min 0 W/m 16,7 km/h (3 Bft)
18.08.2015 05:52 12,3 C 11,7 C 99 % 15 lf 1012,1 hPa 0,0 l/m 0 min 0 min 0 W/m 14,6 km/h (3 Bft)
18.08.2015 05:54 12,3 C 11,7 C 99 % 15 lf 1012,1 hPa 0,0 l/m 0 min 0 min 0 W/m 27,2 km/h (4 Bft)
18.08.2015 05:56 12,3 C 11,7 C 99 % 15 lf 1012,1 hPa 0,0 l/m 0 min 0 min 0 W/m 23,0 km/h (4 Bft)
18.08.2015 05:58 12,3 C 11,7 C 99 % 15 lf 1012,1 hPa 0,0 l/m 0 min 0 min 0 W/m 23,0 km/h (4 Bft)
18.08.2015 06:00 12,3 C 11,7 C 99 % 15 lf 1012,1 hPa 0,0 l/m 0 min 0 min 0 W/m 20,9 km/h (4 Bft)
18.08.2015 06:02 12,3 C 11,7 C 99 % 15 lf 1012,1 hPa 0,0 l/m 0 min 0 min 0 W/m 16,7 km/h (3 Bft)
18.08.2015 06:05 12,3 C 11,7 C 99 % 15 lf 1012,1 hPa 0,0 l/m 0 min 0 min 0 W/m 18,8 km/h (3 Bft)
18.08.2015 06:08 12,3 C 11,7 C 99 % 15 lf 1012,1 hPa 0,0 l/m 0 min 0 min 0 W/m 18,8 km/h (3 Bft)
18.08.2015 06:10 12,3 C 11,7 C 99 % 15 lf 1012,1 hPa 0,0 l/m 0 min 0 min 0 W/m 14,6 km/h (3 Bft)
18.08.2015 06:12 12,3 C 11,7 C 99 % 15 lf 1012,1 hPa 0,0 l/m 0 min 0 min 0 W/m 14,6 km/h (3 Bft)
18.08.2015 06:14 12,3 C 11,7 C 99 % 15 lf 1012,1 hPa 0,0 l/m 0 min 0 min 0 W/m 14,6 km/h (3 Bft)
18.08.2015 06:16 12,3 C 11,7 C 99 % 15 lf 1012,1 hPa 0,0 l/m 0 min 0 min 0 W/m 12,6 km/h (3 Bft)
18.08.2015 06:18 12,4 C 11,7 C 99 % 15 lf 1012,2 hPa 0,0 l/m 0 min 0 min 0 W/m 14,6 km/h (3 Bft)
18.08.2015 06:20 12,4 C 11,7 C 99 % 15 lf 1012,2 hPa 0,0 l/m 0 min 0 min 0 W/m 14,6 km/h (3 Bft)
18.08.2015 06:22 12,4 C 11,7 C 99 % 15 lf 1012,2 hPa 0,0 l/m 0 min 0 min 0 W/m 14,6 km/h (3 Bft)
18.08.2015 06:24 12,4 C 11,7 C 99 % 15 lf 1012,3 hPa 0,0 l/m 0 min 0 min 0 W/m 16,7 km/h (3 Bft)
18.08.2015 06:26 12,4 C 11,7 C 99 % 15 lf 1012,3 hPa 0,0 l/m 0 min 0 min 0 W/m 18,8 km/h (3 Bft)
18.08.2015 06:28 12,4 C 11,7 C 99 % 15 lf 1012,3 hPa 0,0 l/m 0 min 0 min 0 W/m 12,6 km/h (3 Bft)
18.08.2015 06:30 12,4 C 11,7 C 99 % 15 lf 1012,3 hPa 0,0 l/m 0 min 0 min 0 W/m 14,6 km/h (3 Bft)
18.08.2015 06:32 12,4 C 11,7 C 99 % 15 lf 1012,3 hPa 0,0 l/m 0 min 0 min 0 W/m 14,6 km/h (3 Bft)
18.08.2015 06:34 12,4 C 11,7 C 99 % 15 lf 1012,2 hPa 0,0 l/m 0 min 0 min 0 W/m 14,6 km/h (3 Bft)
18.08.2015 06:36 12,4 C 11,7 C 99 % 15 lf 1012,2 hPa 0,0 l/m 0 min 0 min 0 W/m 14,6 km/h (3 Bft)
18.08.2015 06:38 12,4 C 11,7 C 99 % 15 lf 1012,2 hPa 0,0 l/m 0 min 0 min 0 W/m 18,8 km/h (3 Bft)
18.08.2015 06:40 12,4 C 11,7 C 99 % 15 lf 1012,2 hPa 0,0 l/m 0 min 0 min 0 W/m 18,8 km/h (3 Bft)
18.08.2015 06:42 12,4 C 11,7 C 99 % 15 lf 1012,2 hPa 0,0 l/m 0 min 0 min 0 W/m 20,9 km/h (4 Bft)
18.08.2015 06:44 12,4 C 11,7 C 99 % 15 lf 1012,2 hPa 0,0 l/m 0 min 0 min 0 W/m 10,5 km/h (2 Bft)
18.08.2015 06:46 12,4 C 11,7 C 99 % 15 lf 1012,2 hPa 0,0 l/m 0 min 0 min 2 W/m 16,7 km/h (3 Bft)
18.08.2015 06:48 12,4 C 11,7 C 99 % 15 lf 1012,3 hPa 0,0 l/m 0 min 0 min 5 W/m 12,6 km/h (3 Bft)
18.08.2015 06:50 12,4 C 11,7 C 99 % 15 lf 1012,3 hPa 0,0 l/m 0 min 0 min 5 W/m 12,6 km/h (3 Bft)
18.08.2015 06:52 12,4 C 11,7 C 99 % 15 lf 1012,3 hPa 0,0 l/m 0 min 0 min 3 W/m 20,9 km/h (4 Bft)
18.08.2015 06:54 12,4 C 11,7 C 99 % 15 lf 1012,3 hPa 0,0 l/m 0 min 0 min 5 W/m 18,8 km/h (3 Bft)
18.08.2015 06:56 12,4 C 11,7 C 99 % 15 lf 1012,3 hPa 0,0 l/m 0 min 0 min 6 W/m 14,6 km/h (3 Bft)
18.08.2015 06:58 12,4 C 11,7 C 99 % 15 lf 1012,3 hPa 0,0 l/m 0 min 0 min 8 W/m 23,0 km/h (4 Bft)
18.08.2015 07:00 12,4 C 11,7 C 99 % 15 lf 1012,3 hPa 0,0 l/m 0 min 0 min 12 W/m 18,8 km/h (3 Bft)
18.08.2015 07:02 12,4 C 11,7 C 99 % 15 lf 1012,3 hPa 0,0 l/m 0 min 0 min 15 W/m 23,0 km/h (4 Bft)
18.08.2015 07:04 12,3 C 11,7 C 99 % 15 lf 1012,3 hPa 0,0 l/m 0 min 0 min 17 W/m 16,7 km/h (3 Bft)
18.08.2015 07:06 12,4 C 11,7 C 99 % 15 lf 1012,3 hPa 0,0 l/m 0 min 0 min 20 W/m 18,8 km/h (3 Bft)
18.08.2015 07:08 12,4 C 11,7 C 99 % 15 lf 1012,3 hPa 0,0 l/m 0 min 0 min 21 W/m 18,8 km/h (3 Bft)
18.08.2015 07:10 12,4 C 11,7 C 99 % 15 lf 1012,3 hPa 0,0 l/m 0 min 0 min 22 W/m 16,7 km/h (3 Bft)
18.08.2015 07:12 12,4 C 11,7 C 99 % 15 lf 1012,3 hPa 0,0 l/m 0 min 0 min 24 W/m 14,6 km/h (3 Bft)
18.08.2015 07:14 12,4 C 11,7 C 99 % 15 lf 1012,3 hPa 0,0 l/m 0 min 0 min 25 W/m 14,6 km/h (3 Bft)
18.08.2015 07:16 12,4 C 11,7 C 99 % 15 lf 1012,2 hPa 0,0 l/m 0 min 0 min 27 W/m 16,7 km/h (3 Bft)
18.08.2015 07:18 12,4 C 11,7 C 99 % 15 lf 1012,3 hPa 0,0 l/m 0 min 0 min 29 W/m 18,8 km/h (3 Bft)
18.08.2015 07:20 12,4 C 11,7 C 99 % 15 lf 1012,3 hPa 0,0 l/m 0 min 0 min 32 W/m 12,6 km/h (3 Bft)
18.08.2015 07:22 12,4 C 11,7 C 99 % 15 lf 1012,3 hPa 0,0 l/m 0 min 0 min 31 W/m 18,8 km/h (3 Bft)
18.08.2015 07:24 12,4 C 11,7 C 99 % 15 lf 1012,3 hPa 0,0 l/m 0 min 0 min 25 W/m 16,7 km/h (3 Bft)
18.08.2015 07:26 12,3 C 11,7 C 99 % 14 lf 1012,3 hPa 0,0 l/m 0 min 0 min 25 W/m 18,8 km/h (3 Bft)
18.08.2015 07:28 12,3 C 11,7 C 99 % 14 lf 1012,4 hPa 0,0 l/m 0 min 0 min 25 W/m 23,0 km/h (4 Bft)
18.08.2015 07:30 12,3 C 11,7 C 99 % 14 lf 1012,4 hPa 0,0 l/m 0 min 0 min 26 W/m 18,8 km/h (3 Bft)
18.08.2015 07:32 12,3 C 11,7 C 99 % 14 lf 1012,4 hPa 0,0 l/m 0 min 0 min 28 W/m 20,9 km/h (4 Bft)
18.08.2015 07:34 12,3 C 11,7 C 99 % 13 lf 1012,5 hPa 0,0 l/m 0 min 0 min 32 W/m 23,0 km/h (4 Bft)
18.08.2015 07:36 12,3 C 11,7 C 99 % 13 lf 1012,4 hPa 0,0 l/m 0 min 0 min 34 W/m 18,8 km/h (3 Bft)
18.08.2015 07:38 12,3 C 11,7 C 99 % 13 lf 1012,4 hPa 0,0 l/m 0 min 0 min 37 W/m 27,2 km/h (4 Bft)
18.08.2015 07:40 12,3 C 11,7 C 99 % 13 lf 1012,5 hPa 0,0 l/m 0 min 0 min 41 W/m 18,8 km/h (3 Bft)
18.08.2015 07:42 12,3 C 11,7 C 99 % 12 lf 1012,5 hPa 0,0 l/m 0 min 0 min 43 W/m 18,8 km/h (3 Bft)
18.08.2015 07:44 12,3 C 11,7 C 99 % 12 lf 1012,5 hPa 0,0 l/m 0 min 0 min 41 W/m 12,6 km/h (3 Bft)
18.08.2015 07:46 12,4 C 11,7 C 99 % 12 lf 1012,4 hPa 0,0 l/m 0 min 0 min 35 W/m 18,8 km/h (3 Bft)
18.08.2015 07:48 12,4 C 11,7 C 99 % 12 lf 1012,5 hPa 0,0 l/m 0 min 0 min 33 W/m 20,9 km/h (4 Bft)
18.08.2015 07:50 12,4 C 11,7 C 99 % 12 lf 1012,5 hPa 0,0 l/m 0 min 0 min 35 W/m 16,7 km/h (3 Bft)
18.08.2015 07:52 12,4 C 11,7 C 99 % 12 lf 1012,5 hPa 0,0 l/m 0 min 0 min 35 W/m 16,7 km/h (3 Bft)
18.08.2015 07:54 12,4 C 11,7 C 99 % 12 lf 1012,5 hPa 0,0 l/m 0 min 0 min 30 W/m 16,7 km/h (3 Bft)
18.08.2015 07:56 12,4 C 11,7 C 99 % 12 lf 1012,5 hPa 0,0 l/m 0 min 0 min 29 W/m 20,9 km/h (4 Bft)
18.08.2015 07:58 12,4 C 11,7 C 99 % 12 lf 1012,5 hPa 0,0 l/m 0 min 0 min 33 W/m 16,7 km/h (3 Bft)
18.08.2015 08:00 12,4 C 11,7 C 99 % 12 lf 1012,5 hPa 0,0 l/m 0 min 0 min 32 W/m 12,6 km/h (3 Bft)
18.08.2015 08:02 12,5 C 11,7 C 99 % 12 lf 1012,5 hPa 0,0 l/m 0 min 0 min 36 W/m 18,8 km/h (3 Bft)
18.08.2015 08:04 12,5 C 11,7 C 99 % 12 lf 1012,6 hPa 0,0 l/m 0 min 0 min 40 W/m 16,7 km/h (3 Bft)
18.08.2015 08:06 12,5 C 11,7 C 99 % 12 lf 1012,6 hPa 0,0 l/m 0 min 0 min 41 W/m 18,8 km/h (3 Bft)
18.08.2015 08:08 12,5 C 11,7 C 99 % 12 lf 1012,6 hPa 0,0 l/m 0 min 0 min 47 W/m 18,8 km/h (3 Bft)
18.08.2015 08:10 12,4 C 11,7 C 99 % 11 lf 1012,7 hPa 0,0 l/m 0 min 0 min 65 W/m 18,8 km/h (3 Bft)
18.08.2015 08:12 12,4 C 11,7 C 99 % 12 lf 1012,7 hPa 0,0 l/m 0 min 0 min 75 W/m 12,6 km/h (3 Bft)
18.08.2015 08:14 12,4 C 11,7 C 99 % 11 lf 1012,6 hPa 0,0 l/m 0 min 2 min 81 W/m 14,6 km/h (3 Bft)
18.08.2015 08:16 12,4 C 12,2 C 99 % 10 lf 1012,7 hPa 0,0 l/m 0 min 0 min 84 W/m 14,6 km/h (3 Bft)
18.08.2015 08:18 12,5 C 12,2 C 99 % 11 lf 1012,6 hPa 0,0 l/m 0 min 0 min 88 W/m 12,6 km/h (3 Bft)
18.08.2015 08:20 12,5 C 12,2 C 99 % 10 lf 1012,6 hPa 0,0 l/m 0 min 0 min 91 W/m 16,7 km/h (3 Bft)
18.08.2015 08:22 12,5 C 12,2 C 99 % 10 lf 1012,6 hPa 0,0 l/m 0 min 0 min 90 W/m 10,5 km/h (2 Bft)
18.08.2015 08:24 12,5 C 12,2 C 99 % 9 lf 1012,7 hPa 0,0 l/m 0 min 0 min 92 W/m 8,4 km/h (2 Bft)
18.08.2015 08:26 12,6 C 12,2 C 99 % 9 lf 1012,7 hPa 0,0 l/m 0 min 0 min 101 W/m 12,6 km/h (3 Bft)
18.08.2015 08:28 12,6 C 12,2 C 99 % 9 lf 1012,7 hPa 0,0 l/m 0 min 0 min 106 W/m 12,6 km/h (3 Bft)
18.08.2015 08:30 12,7 C 12,2 C 99 % 9 lf 1012,7 hPa 0,0 l/m 0 min 0 min 108 W/m 12,6 km/h (3 Bft)
18.08.2015 08:32 12,7 C 12,8 C 99 % 8 lf 1012,7 hPa 0,0 l/m 0 min 0 min 111 W/m 14,6 km/h (3 Bft)
18.08.2015 08:34 12,7 C 12,2 C 99 % 7 lf 1012,7 hPa 0,0 l/m 0 min 0 min 114 W/m 16,7 km/h (3 Bft)
18.08.2015 08:36 12,7 C 12,8 C 99 % 6 lf 1012,7 hPa 0,0 l/m 0 min 0 min 134 W/m 16,7 km/h (3 Bft)
18.08.2015 08:38 12,8 C 12,8 C 99 % 5 lf 1012,6 hPa 0,0 l/m 0 min 0 min 162 W/m 23,0 km/h (4 Bft)
18.08.2015 08:40 12,8 C 12,8 C 99 % 4 lf 1012,6 hPa 0,0 l/m 2 min 0 min 177 W/m 12,6 km/h (3 Bft)
18.08.2015 08:42 12,9 C 12,8 C 99 % 4 lf 1012,7 hPa 0,0 l/m 2 min 0 min 189 W/m 18,8 km/h (3 Bft)
18.08.2015 08:44 12,9 C 12,8 C 99 % 4 lf 1012,7 hPa 0,0 l/m 2 min 0 min 198 W/m 18,8 km/h (3 Bft)
18.08.2015 08:46 13,0 C 13,3 C 99 % 3 lf 1012,7 hPa 0,0 l/m 2 min 0 min 223 W/m 16,7 km/h (3 Bft)
18.08.2015 08:48 13,1 C 13,3 C 99 % 3 lf 1012,7 hPa 0,0 l/m 2 min 0 min 236 W/m 20,9 km/h (4 Bft)
18.08.2015 08:50 13,1 C 13,3 C 99 % 3 lf 1012,7 hPa 0,0 l/m 2 min 0 min 197 W/m 25,1 km/h (4 Bft)
18.08.2015 08:52 13,1 C 13,3 C 99 % 3 lf 1012,7 hPa 0,0 l/m 0 min 0 min 174 W/m 16,7 km/h (3 Bft)
18.08.2015 08:54 13,2 C 13,3 C 99 % 2 lf 1012,7 hPa 0,0 l/m 0 min 0 min 159 W/m 12,6 km/h (3 Bft)
18.08.2015 08:56 13,2 C 13,3 C 99 % 2 lf 1012,7 hPa 0,0 l/m 0 min 0 min 146 W/m 23,0 km/h (4 Bft)
18.08.2015 08:58 13,2 C 13,3 C 99 % 2 lf 1012,7 hPa 0,0 l/m 0 min 0 min 148 W/m 23,0 km/h (4 Bft)
18.08.2015 09:00 13,2 C 12,8 C 99 % 1 lf 1012,8 hPa 0,0 l/m 0 min 0 min 141 W/m 18,8 km/h (3 Bft)
18.08.2015 09:02 13,3 C 12,8 C 99 % 1 lf 1012,8 hPa 0,0 l/m 0 min 0 min 124 W/m 16,7 km/h (3 Bft)
18.08.2015 09:04 13,3 C 12,8 C 99 % 1 lf 1012,8 hPa 0,0 l/m 0 min 0 min 114 W/m 16,7 km/h (3 Bft)
18.08.2015 09:06 13,3 C 12,8 C 99 % 1 lf 1012,7 hPa 0,0 l/m 0 min 0 min 118 W/m 14,6 km/h (3 Bft)
18.08.2015 09:08 13,3 C 12,8 C 99 % 1 lf 1012,7 hPa 0,0 l/m 0 min 0 min 137 W/m 12,6 km/h (3 Bft)
18.08.2015 09:10 13,3 C 12,8 C 99 % 1 lf 1012,8 hPa 0,0 l/m 0 min 0 min 133 W/m 14,6 km/h (3 Bft)
18.08.2015 09:12 13,4 C 12,8 C 99 % 0 lf 1012,8 hPa 0,0 l/m 0 min 0 min 111 W/m 18,8 km/h (3 Bft)
18.08.2015 09:14 13,4 C 12,8 C 99 % 0 lf 1012,8 hPa 0,0 l/m 0 min 0 min 100 W/m 14,6 km/h (3 Bft)
18.08.2015 09:16 13,4 C 12,8 C 99 % 0 lf 1012,8 hPa 0,0 l/m 0 min 0 min 94 W/m 16,7 km/h (3 Bft)
18.08.2015 09:18 13,4 C 12,8 C 99 % 0 lf 1012,8 hPa 0,0 l/m 0 min 0 min 97 W/m 16,7 km/h (3 Bft)
18.08.2015 09:20 13,4 C 12,8 C 99 % 0 lf 1012,8 hPa 0,0 l/m 0 min 0 min 80 W/m 16,7 km/h (3 Bft)
18.08.2015 09:22 13,4 C 12,8 C 98 % 0 lf 1012,7 hPa 0,0 l/m 0 min 0 min 75 W/m 10,5 km/h (2 Bft)
18.08.2015 09:24 13,4 C 12,8 C 98 % 0 lf 1012,7 hPa 0,0 l/m 0 min 0 min 106 W/m 20,9 km/h (4 Bft)
18.08.2015 09:26 13,4 C 12,8 C 98 % 0 lf 1012,7 hPa 0,0 l/m 0 min 0 min 124 W/m 16,7 km/h (3 Bft)
18.08.2015 09:28 13,4 C 12,8 C 98 % 0 lf 1012,8 hPa 0,0 l/m 0 min 0 min 142 W/m 12,6 km/h (3 Bft)
18.08.2015 09:30 13,5 C 13,3 C 98 % 0 lf 1012,8 hPa 0,0 l/m 0 min 0 min 145 W/m 16,7 km/h (3 Bft)
18.08.2015 09:32 13,5 C 13,3 C 98 % 0 lf 1012,8 hPa 0,0 l/m 0 min 0 min 131 W/m 12,6 km/h (3 Bft)
18.08.2015 09:34 13,5 C 13,3 C 98 % 0 lf 1012,9 hPa 0,0 l/m 0 min 0 min 125 W/m 10,5 km/h (2 Bft)
18.08.2015 09:36 13,6 C 13,3 C 98 % 0 lf 1012,9 hPa 0,0 l/m 0 min 0 min 136 W/m 12,6 km/h (3 Bft)
18.08.2015 09:38 13,6 C 13,3 C 98 % 0 lf 1012,9 hPa 0,0 l/m 0 min 0 min 128 W/m 14,6 km/h (3 Bft)
18.08.2015 09:40 13,6 C 13,3 C 98 % 0 lf 1012,9 hPa 0,0 l/m 0 min 0 min 115 W/m 16,7 km/h (3 Bft)
18.08.2015 09:42 13,6 C 13,3 C 98 % 0 lf 1012,9 hPa 0,0 l/m 0 min 0 min 109 W/m 12,6 km/h (3 Bft)
18.08.2015 09:44 13,6 C 13,3 C 98 % 0 lf 1012,9 hPa 0,0 l/m 0 min 0 min 109 W/m 18,8 km/h (3 Bft)
18.08.2015 09:46 13,7 C 13,3 C 98 % 0 lf 1012,9 hPa 0,0 l/m 0 min 0 min 114 W/m 20,9 km/h (4 Bft)
18.08.2015 09:48 13,7 C 12,8 C 98 % 0 lf 1013,0 hPa 0,0 l/m 0 min 0 min 118 W/m 25,1 km/h (4 Bft)
18.08.2015 09:50 13,7 C 12,8 C 98 % 0 lf 1013,1 hPa 0,0 l/m 0 min 0 min 115 W/m 20,9 km/h (4 Bft)
18.08.2015 09:52 13,7 C 12,8 C 98 % 0 lf 1013,0 hPa 0,0 l/m 0 min 0 min 78 W/m 18,8 km/h (3 Bft)
18.08.2015 09:54 13,6 C 12,8 C 98 % 0 lf 1013,1 hPa 0,0 l/m 0 min 0 min 71 W/m 12,6 km/h (3 Bft)
18.08.2015 09:56 13,7 C 12,8 C 98 % 0 lf 1013,2 hPa 0,0 l/m 0 min 0 min 83 W/m 16,7 km/h (3 Bft)
18.08.2015 09:58 13,7 C 12,8 C 97 % 0 lf 1013,3 hPa 0,0 l/m 0 min 0 min 86 W/m 16,7 km/h (3 Bft)
18.08.2015 10:00 13,7 C 12,8 C 97 % 0 lf 1013,3 hPa 0,0 l/m 0 min 0 min 106 W/m 16,7 km/h (3 Bft)
18.08.2015 10:02 13,7 C 12,8 C 97 % 0 lf 1013,3 hPa 0,0 l/m 0 min 0 min 106 W/m 14,6 km/h (3 Bft)
18.08.2015 10:04 13,7 C 12,8 C 97 % 0 lf 1013,3 hPa 0,0 l/m 0 min 0 min 126 W/m 14,6 km/h (3 Bft)
18.08.2015 10:06 13,7 C 13,3 C 97 % 0 lf 1013,3 hPa 0,0 l/m 0 min 0 min 147 W/m 18,8 km/h (3 Bft)
18.08.2015 10:08 13,7 C 13,3 C 97 % 0 lf 1013,3 hPa 0,0 l/m 0 min 0 min 155 W/m 16,7 km/h (3 Bft)
18.08.2015 10:10 13,7 C 13,3 C 97 % 0 lf 1013,3 hPa 0,0 l/m 0 min 0 min 162 W/m 16,7 km/h (3 Bft)
18.08.2015 10:12 13,7 C 13,3 C 97 % 0 lf 1013,4 hPa 0,0 l/m 0 min 0 min 167 W/m 25,1 km/h (4 Bft)
18.08.2015 10:14 13,7 C 13,3 C 97 % 0 lf 1013,3 hPa 0,0 l/m 0 min 0 min 155 W/m 23,0 km/h (4 Bft)
18.08.2015 10:16 13,7 C 13,3 C 97 % 0 lf 1013,3 hPa 0,0 l/m 0 min 0 min 139 W/m 27,2 km/h (4 Bft)
18.08.2015 10:18 13,7 C 12,8 C 97 % 0 lf 1013,4 hPa 0,0 l/m 0 min 0 min 123 W/m 23,0 km/h (4 Bft)
18.08.2015 10:20 13,7 C 12,8 C 97 % 0 lf 1013,4 hPa 0,0 l/m 0 min 0 min 116 W/m 29,3 km/h (5 Bft)
18.08.2015 10:22 13,7 C 12,8 C 96 % 0 lf 1013,5 hPa 0,0 l/m 0 min 0 min 97 W/m 27,2 km/h (4 Bft)
18.08.2015 10:24 13,7 C 12,8 C 96 % 0 lf 1013,5 hPa 0,0 l/m 0 min 0 min 112 W/m 18,8 km/h (3 Bft)
18.08.2015 10:26 13,7 C 12,8 C 96 % 0 lf 1013,5 hPa 0,0 l/m 0 min 0 min 153 W/m 14,6 km/h (3 Bft)
18.08.2015 10:28 13,7 C 13,3 C 96 % 0 lf 1013,5 hPa 0,0 l/m 0 min 0 min 182 W/m 27,2 km/h (4 Bft)
18.08.2015 10:30 13,7 C 13,3 C 96 % 0 lf 1013,5 hPa 0,0 l/m 0 min 0 min 197 W/m 18,8 km/h (3 Bft)
18.08.2015 10:32 13,7 C 13,3 C 96 % 0 lf 1013,6 hPa 0,0 l/m 0 min 0 min 197 W/m 18,8 km/h (3 Bft)
18.08.2015 10:34 13,8 C 13,3 C 96 % 0 lf 1013,6 hPa 0,0 l/m 0 min 0 min 201 W/m 20,9 km/h (4 Bft)
18.08.2015 10:36 13,8 C 13,3 C 96 % 0 lf 1013,6 hPa 0,0 l/m 0 min 0 min 195 W/m 25,1 km/h (4 Bft)
18.08.2015 10:38 13,8 C 13,3 C 96 % 0 lf 1013,6 hPa 0,0 l/m 0 min 0 min 188 W/m 25,1 km/h (4 Bft)
18.08.2015 10:40 13,9 C 13,3 C 95 % 0 lf 1013,6 hPa 0,0 l/m 0 min 0 min 165 W/m 16,7 km/h (3 Bft)
18.08.2015 10:42 13,9 C 13,3 C 95 % 0 lf 1013,7 hPa 0,0 l/m 0 min 0 min 151 W/m 18,8 km/h (3 Bft)
18.08.2015 10:44 13,9 C 13,3 C 95 % 0 lf 1013,7 hPa 0,0 l/m 0 min 0 min 138 W/m 18,8 km/h (3 Bft)
18.08.2015 10:46 14,0 C 13,3 C 95 % 0 lf 1013,6 hPa 0,0 l/m 0 min 0 min 154 W/m 18,8 km/h (3 Bft)
18.08.2015 10:48 14,0 C 13,3 C 95 % 0 lf 1013,6 hPa 0,0 l/m 0 min 0 min 163 W/m 18,8 km/h (3 Bft)
18.08.2015 10:50 14,1 C 13,3 C 95 % 0 lf 1013,7 hPa 0,0 l/m 0 min 0 min 195 W/m 18,8 km/h (3 Bft)
18.08.2015 10:52 14,1 C 13,3 C 95 % 0 lf 1013,8 hPa 0,0 l/m 0 min 0 min 186 W/m 20,9 km/h (4 Bft)
18.08.2015 10:54 14,1 C 13,3 C 95 % 0 lf 1013,9 hPa 0,0 l/m 0 min 0 min 167 W/m 20,9 km/h (4 Bft)
18.08.2015 10:56 14,0 C 13,3 C 94 % 0 lf 1013,9 hPa 0,0 l/m 0 min 0 min 178 W/m 27,2 km/h (4 Bft)
18.08.2015 10:58 13,9 C 13,3 C 94 % 0 lf 1013,8 hPa 0,0 l/m 0 min 0 min 214 W/m 18,8 km/h (3 Bft)
18.08.2015 11:00 14,0 C 13,3 C 94 % 0 lf 1013,8 hPa 0,0 l/m 0 min 0 min 234 W/m 16,7 km/h (3 Bft)
18.08.2015 11:02 14,0 C 13,9 C 94 % 0 lf 1013,7 hPa 0,0 l/m 0 min 0 min 237 W/m 23,0 km/h (4 Bft)
18.08.2015 11:04 14,1 C 13,9 C 94 % 0 lf 1013,8 hPa 0,0 l/m 0 min 0 min 242 W/m 12,6 km/h (3 Bft)
18.08.2015 11:06 14,1 C 13,9 C 93 % 0 lf 1013,7 hPa 0,0 l/m 0 min 0 min 249 W/m 18,8 km/h (3 Bft)
18.08.2015 11:08 14,2 C 13,9 C 93 % 0 lf 1013,8 hPa 0,0 l/m 0 min 0 min 256 W/m 16,7 km/h (3 Bft)
18.08.2015 11:10 14,2 C 14,4 C 93 % 0 lf 1013,9 hPa 0,0 l/m 0 min 0 min 281 W/m 14,6 km/h (3 Bft)
18.08.2015 11:12 14,2 C 14,4 C 93 % 0 lf 1013,8 hPa 0,0 l/m 0 min 0 min 291 W/m 18,8 km/h (3 Bft)
18.08.2015 11:14 14,2 C 14,4 C 93 % 0 lf 1013,8 hPa 0,0 l/m 0 min 0 min 298 W/m 18,8 km/h (3 Bft)
18.08.2015 11:16 14,2 C 14,4 C 93 % 0 lf 1013,7 hPa 0,0 l/m 0 min 0 min 276 W/m 20,9 km/h (4 Bft)
18.08.2015 11:18 14,3 C 14,4 C 93 % 0 lf 1013,8 hPa 0,0 l/m 0 min 0 min 264 W/m 18,8 km/h (3 Bft)
18.08.2015 11:20 14,3 C 14,4 C 93 % 0 lf 1013,8 hPa 0,0 l/m 0 min 0 min 277 W/m 18,8 km/h (3 Bft)
18.08.2015 11:22 14,4 C 14,4 C 93 % 0 lf 1013,8 hPa 0,0 l/m 0 min 0 min 278 W/m 25,1 km/h (4 Bft)
18.08.2015 11:24 14,4 C 14,4 C 93 % 0 lf 1013,9 hPa 0,0 l/m 0 min 0 min 283 W/m 18,8 km/h (3 Bft)
18.08.2015 11:26 14,5 C 15,0 C 92 % 0 lf 1013,9 hPa 0,0 l/m 0 min 0 min 299 W/m 12,6 km/h (3 Bft)
18.08.2015 11:28 14,6 C 15,0 C 93 % 0 lf 1013,9 hPa 0,0 l/m 2 min 0 min 339 W/m 12,6 km/h (3 Bft)
18.08.2015 11:30 14,7 C 15,0 C 93 % 0 lf 1013,9 hPa 0,0 l/m 0 min 0 min 324 W/m 14,6 km/h (3 Bft)
18.08.2015 11:32 14,8 C 15,0 C 92 % 0 lf 1013,9 hPa 0,0 l/m 0 min 0 min 289 W/m 18,8 km/h (3 Bft)
18.08.2015 11:34 14,8 C 15,0 C 92 % 0 lf 1013,9 hPa 0,0 l/m 0 min 0 min 302 W/m 20,9 km/h (4 Bft)
18.08.2015 11:36 14,9 C 15,0 C 92 % 0 lf 1014,0 hPa 0,0 l/m 0 min 0 min 319 W/m 16,7 km/h (3 Bft)
18.08.2015 11:38 14,9 C 15,6 C 91 % 0 lf 1013,9 hPa 0,0 l/m 0 min 0 min 328 W/m 14,6 km/h (3 Bft)
18.08.2015 11:40 14,9 C 16,1 C 91 % 0 lf 1013,9 hPa 0,0 l/m 2 min 0 min 510 W/m 14,6 km/h (3 Bft)
18.08.2015 11:42 15,1 C 16,7 C 91 % 0 lf 1013,9 hPa 0,0 l/m 2 min 0 min 492 W/m 12,6 km/h (3 Bft)
18.08.2015 11:44 15,2 C 16,7 C 91 % 0 lf 1013,9 hPa 0,0 l/m 2 min 0 min 468 W/m 14,6 km/h (3 Bft)
18.08.2015 11:46 15,3 C 17,2 C 91 % 0 lf 1013,9 hPa 0,0 l/m 2 min 0 min 531 W/m 23,0 km/h (4 Bft)
18.08.2015 11:48 15,4 C 17,2 C 90 % 0 lf 1013,8 hPa 0,0 l/m 2 min 0 min 584 W/m 16,7 km/h (3 Bft)
18.08.2015 11:50 15,4 C 16,7 C 90 % 0 lf 1013,8 hPa 0,0 l/m 2 min 0 min 417 W/m 25,1 km/h (4 Bft)
18.08.2015 11:52 15,5 C 16,1 C 89 % 0 lf 1013,9 hPa 0,0 l/m 0 min 0 min 292 W/m 18,8 km/h (3 Bft)
18.08.2015 11:54 15,6 C 16,1 C 89 % 0 lf 1013,9 hPa 0,0 l/m 0 min 0 min 201 W/m 16,7 km/h (3 Bft)
18.08.2015 11:56 15,6 C 15,6 C 88 % 0 lf 1014,0 hPa 0,0 l/m 0 min 0 min 166 W/m 14,6 km/h (3 Bft)
18.08.2015 11:58 15,6 C 15,0 C 88 % 0 lf 1014,0 hPa 0,0 l/m 0 min 0 min 134 W/m 14,6 km/h (3 Bft)
18.08.2015 12:00 15,7 C 15,0 C 88 % 0 lf 1014,1 hPa 0,0 l/m 0 min 0 min 121 W/m 20,9 km/h (4 Bft)
18.08.2015 12:02 15,6 C 14,4 C 87 % 0 lf 1014,1 hPa 0,0 l/m 0 min 0 min 128 W/m 25,1 km/h (4 Bft)
18.08.2015 12:05 15,5 C 14,4 C 87 % 0 lf 1014,1 hPa 0,0 l/m 0 min 0 min 148 W/m 16,7 km/h (3 Bft)
18.08.2015 12:08 15,4 C 14,4 C 87 % 0 lf 1014,1 hPa 0,0 l/m 0 min 0 min 128 W/m 16,7 km/h (3 Bft)
18.08.2015 12:10 15,4 C 14,4 C 87 % 0 lf 1014,2 hPa 0,0 l/m 0 min 0 min 126 W/m 16,7 km/h (3 Bft)
18.08.2015 12:12 15,4 C 14,4 C 87 % 0 lf 1014,2 hPa 0,0 l/m 0 min 0 min 169 W/m 14,6 km/h (3 Bft)
18.08.2015 12:14 15,4 C 14,4 C 87 % 0 lf 1014,2 hPa 0,0 l/m 0 min 0 min 202 W/m 12,6 km/h (3 Bft)
18.08.2015 12:16 15,3 C 14,4 C 87 % 0 lf 1014,1 hPa 0,0 l/m 0 min 0 min 225 W/m 16,7 km/h (3 Bft)
18.08.2015 12:18 15,3 C 15,0 C 87 % 0 lf 1014,2 hPa 0,0 l/m 0 min 0 min 286 W/m 20,9 km/h (4 Bft)
18.08.2015 12:20 15,4 C 15,6 C 88 % 0 lf 1014,1 hPa 0,0 l/m 2 min 0 min 387 W/m 14,6 km/h (3 Bft)
18.08.2015 12:22 15,4 C 16,1 C 88 % 0 lf 1014,1 hPa 0,0 l/m 2 min 0 min 537 W/m 23,0 km/h (4 Bft)
18.08.2015 12:24 15,4 C 16,1 C 88 % 0 lf 1014,1 hPa 0,0 l/m 2 min 0 min 498 W/m 18,8 km/h (3 Bft)
18.08.2015 12:26 15,4 C 16,7 C 87 % 0 lf 1014,2 hPa 0,0 l/m 2 min 0 min 438 W/m 18,8 km/h (3 Bft)
18.08.2015 12:28 15,5 C 16,7 C 87 % 0 lf 1014,2 hPa 0,0 l/m 2 min 0 min 424 W/m 16,7 km/h (3 Bft)
18.08.2015 12:30 15,6 C 16,7 C 87 % 0 lf 1014,2 hPa 0,0 l/m 0 min 0 min 364 W/m 16,7 km/h (3 Bft)
18.08.2015 12:32 15,6 C 16,1 C 87 % 0 lf 1014,2 hPa 0,0 l/m 0 min 0 min 303 W/m 10,5 km/h (2 Bft)
18.08.2015 12:34 15,6 C 16,1 C 87 % 0 lf 1014,2 hPa 0,0 l/m 0 min 0 min 217 W/m 14,6 km/h (3 Bft)
18.08.2015 12:36 15,7 C 15,6 C 87 % 0 lf 1014,2 hPa 0,0 l/m 0 min 0 min 141 W/m 12,6 km/h (3 Bft)
18.08.2015 12:38 15,7 C 15,0 C 87 % 0 lf 1014,3 hPa 0,0 l/m 0 min 0 min 104 W/m 12,6 km/h (3 Bft)
18.08.2015 12:40 15,7 C 15,0 C 86 % 0 lf 1014,2 hPa 0,0 l/m 0 min 0 min 91 W/m 10,5 km/h (2 Bft)
18.08.2015 12:42 15,7 C 15,0 C 86 % 0 lf 1014,3 hPa 0,0 l/m 0 min 0 min 95 W/m 14,6 km/h (3 Bft)
18.08.2015 12:44 15,7 C 14,4 C 86 % 0 lf 1014,3 hPa 0,0 l/m 0 min 0 min 93 W/m 18,8 km/h (3 Bft)
18.08.2015 12:46 15,7 C 14,4 C 86 % 0 lf 1014,3 hPa 0,0 l/m 0 min 0 min 103 W/m 16,7 km/h (3 Bft)
18.08.2015 12:48 15,6 C 14,4 C 86 % 0 lf 1014,3 hPa 0,0 l/m 0 min 0 min 148 W/m 20,9 km/h (4 Bft)
18.08.2015 12:50 15,6 C 15,0 C 86 % 0 lf 1014,3 hPa 0,0 l/m 0 min 0 min 203 W/m 14,6 km/h (3 Bft)
18.08.2015 12:52 15,6 C 15,0 C 86 % 0 lf 1014,3 hPa 0,0 l/m 0 min 0 min 239 W/m 16,7 km/h (3 Bft)
18.08.2015 12:54 15,6 C 15,0 C 86 % 0 lf 1014,3 hPa 0,0 l/m 0 min 0 min 264 W/m 14,6 km/h (3 Bft)
18.08.2015 12:56 15,6 C 15,6 C 86 % 0 lf 1014,3 hPa 0,0 l/m 0 min 0 min 253 W/m 20,9 km/h (4 Bft)
18.08.2015 12:58 15,6 C 15,0 C 86 % 0 lf 1014,4 hPa 0,0 l/m 0 min 0 min 225 W/m 18,8 km/h (3 Bft)
18.08.2015 13:00 15,5 C 15,0 C 86 % 0 lf 1014,4 hPa 0,0 l/m 0 min 0 min 162 W/m 16,7 km/h (3 Bft)
18.08.2015 13:02 15,5 C 15,0 C 86 % 0 lf 1014,4 hPa 0,0 l/m 0 min 0 min 111 W/m 20,9 km/h (4 Bft)
18.08.2015 13:04 15,5 C 14,4 C 86 % 0 lf 1014,4 hPa 0,0 l/m 0 min 0 min 85 W/m 14,6 km/h (3 Bft)
18.08.2015 13:06 15,4 C 14,4 C 86 % 0 lf 1014,4 hPa 0,0 l/m 0 min 0 min 101 W/m 20,9 km/h (4 Bft)
18.08.2015 13:08 15,4 C 14,4 C 86 % 0 lf 1014,4 hPa 0,0 l/m 0 min 0 min 140 W/m 27,2 km/h (4 Bft)
18.08.2015 13:10 15,4 C 14,4 C 86 % 0 lf 1014,5 hPa 0,0 l/m 0 min 0 min 200 W/m 16,7 km/h (3 Bft)
18.08.2015 13:12 15,3 C 15,0 C 86 % 0 lf 1014,4 hPa 0,0 l/m 0 min 0 min 281 W/m 16,7 km/h (3 Bft)
18.08.2015 13:14 15,4 C 15,6 C 87 % 0 lf 1014,5 hPa 0,0 l/m 0 min 0 min 326 W/m 20,9 km/h (4 Bft)
18.08.2015 13:16 15,4 C 15,6 C 87 % 0 lf 1014,4 hPa 0,0 l/m 0 min 0 min 281 W/m 16,7 km/h (3 Bft)
18.08.2015 13:18 15,4 C 15,6 C 87 % 0 lf 1014,4 hPa 0,0 l/m 0 min 0 min 268 W/m 14,6 km/h (3 Bft)
18.08.2015 13:20 15,5 C 16,1 C 87 % 0 lf 1014,3 hPa 0,0 l/m 0 min 0 min 316 W/m 12,6 km/h (3 Bft)
18.08.2015 13:22 15,6 C 16,1 C 87 % 0 lf 1014,3 hPa 0,0 l/m 0 min 0 min 325 W/m 12,6 km/h (3 Bft)
18.08.2015 13:24 15,6 C 16,1 C 87 % 0 lf 1014,4 hPa 0,0 l/m 0 min 0 min 360 W/m 16,7 km/h (3 Bft)
18.08.2015 13:26 15,7 C 16,7 C 87 % 0 lf 1014,5 hPa 0,0 l/m 0 min 0 min 353 W/m 12,6 km/h (3 Bft)
18.08.2015 13:28 15,8 C 16,7 C 87 % 0 lf 1014,5 hPa 0,0 l/m 0 min 0 min 362 W/m 16,7 km/h (3 Bft)
18.08.2015 13:30 15,8 C 16,7 C 87 % 0 lf 1014,5 hPa 0,0 l/m 2 min 0 min 398 W/m 16,7 km/h (3 Bft)
18.08.2015 13:32 15,9 C 16,7 C 87 % 0 lf 1014,5 hPa 0,0 l/m 0 min 0 min 361 W/m 12,6 km/h (3 Bft)
18.08.2015 13:34 16,0 C 16,7 C 87 % 0 lf 1014,6 hPa 0,0 l/m 0 min 0 min 330 W/m 10,5 km/h (2 Bft)
18.08.2015 13:36 16,1 C 16,7 C 86 % 0 lf 1014,5 hPa 0,0 l/m 0 min 0 min 310 W/m 10,5 km/h (2 Bft)
18.08.2015 13:38 16,1 C 16,7 C 86 % 0 lf 1014,5 hPa 0,0 l/m 0 min 0 min 314 W/m 12,6 km/h (3 Bft)
18.08.2015 13:40 16,2 C 16,7 C 86 % 0 lf 1014,6 hPa 0,0 l/m 0 min 0 min 320 W/m 14,6 km/h (3 Bft)
18.08.2015 13:42 16,2 C 16,7 C 86 % 0 lf 1014,6 hPa 0,0 l/m 0 min 0 min 308 W/m 18,8 km/h (3 Bft)
18.08.2015 13:44 16,3 C 16,7 C 85 % 0 lf 1014,6 hPa 0,0 l/m 0 min 0 min 290 W/m 18,8 km/h (3 Bft)
18.08.2015 13:46 16,3 C 16,7 C 85 % 0 lf 1014,6 hPa 0,0 l/m 0 min 0 min 273 W/m 12,6 km/h (3 Bft)
18.08.2015 13:48 16,3 C 16,7 C 84 % 0 lf 1014,6 hPa 0,0 l/m 0 min 0 min 259 W/m 14,6 km/h (3 Bft)
18.08.2015 13:50 16,3 C 16,7 C 84 % 0 lf 1014,6 hPa 0,0 l/m 0 min 0 min 249 W/m 8,4 km/h (2 Bft)
18.08.2015 13:52 16,4 C 16,7 C 84 % 0 lf 1014,5 hPa 0,0 l/m 0 min 0 min 246 W/m 8,4 km/h (2 Bft)
18.08.2015 13:54 16,4 C 16,7 C 84 % 0 lf 1014,6 hPa 0,0 l/m 0 min 0 min 247 W/m 12,6 km/h (3 Bft)
18.08.2015 13:56 16,4 C 16,7 C 84 % 0 lf 1014,6 hPa 0,0 l/m 0 min 0 min 246 W/m 8,4 km/h (2 Bft)
18.08.2015 13:58 16,5 C 16,7 C 83 % 0 lf 1014,6 hPa 0,0 l/m 0 min 0 min 264 W/m 16,7 km/h (3 Bft)
18.08.2015 14:00 16,5 C 16,7 C 83 % 0 lf 1014,5 hPa 0,0 l/m 0 min 0 min 294 W/m 14,6 km/h (3 Bft)
18.08.2015 14:02 16,5 C 16,7 C 83 % 0 lf 1014,6 hPa 0,0 l/m 0 min 0 min 337 W/m 14,6 km/h (3 Bft)
18.08.2015 14:04 16,6 C 16,7 C 83 % 0 lf 1014,6 hPa 0,0 l/m 0 min 0 min 330 W/m 10,5 km/h (2 Bft)
18.08.2015 14:06 16,7 C 17,2 C 83 % 0 lf 1014,7 hPa 0,0 l/m 0 min 0 min 297 W/m 14,6 km/h (3 Bft)
18.08.2015 14:08 16,7 C 16,7 C 83 % 0 lf 1014,7 hPa 0,0 l/m 0 min 0 min 269 W/m 12,6 km/h (3 Bft)
18.08.2015 14:10 16,7 C 16,7 C 82 % 0 lf 1014,7 hPa 0,0 l/m 0 min 0 min 256 W/m 10,5 km/h (2 Bft)
18.08.2015 14:12 16,8 C 16,7 C 83 % 0 lf 1014,8 hPa 0,0 l/m 0 min 0 min 270 W/m 8,4 km/h (2 Bft)
18.08.2015 14:14 16,8 C 16,7 C 83 % 0 lf 1014,8 hPa 0,0 l/m 0 min 0 min 272 W/m 14,6 km/h (3 Bft)
18.08.2015 14:16 16,8 C 16,7 C 82 % 0 lf 1014,8 hPa 0,0 l/m 0 min 0 min 258 W/m 14,6 km/h (3 Bft)
18.08.2015 14:18 16,8 C 16,7 C 82 % 0 lf 1014,8 hPa 0,0 l/m 0 min 0 min 255 W/m 8,4 km/h (2 Bft)
18.08.2015 14:20 16,9 C 16,7 C 81 % 0 lf 1014,7 hPa 0,0 l/m 0 min 0 min 268 W/m 12,6 km/h (3 Bft)
18.08.2015 14:22 16,9 C 16,7 C 81 % 0 lf 1014,7 hPa 0,0 l/m 0 min 0 min 285 W/m 8,4 km/h (2 Bft)
18.08.2015 14:24 16,9 C 17,2 C 82 % 0 lf 1014,7 hPa 0,0 l/m 0 min 0 min 296 W/m 8,4 km/h (2 Bft)
18.08.2015 14:26 16,9 C 17,2 C 82 % 0 lf 1014,8 hPa 0,0 l/m 0 min 0 min 304 W/m 8,4 km/h (2 Bft)
18.08.2015 14:28 17,0 C 17,2 C 82 % 0 lf 1014,8 hPa 0,0 l/m 0 min 0 min 313 W/m 10,5 km/h (2 Bft)
18.08.2015 14:30 17,1 C 17,2 C 82 % 0 lf 1014,7 hPa 0,0 l/m 0 min 0 min 325 W/m 10,5 km/h (2 Bft)
18.08.2015 14:32 17,1 C 17,8 C 81 % 0 lf 1014,7 hPa 0,0 l/m 0 min 0 min 344 W/m 8,4 km/h (2 Bft)
18.08.2015 14:34 17,1 C 17,8 C 82 % 0 lf 1014,8 hPa 0,0 l/m 2 min 0 min 380 W/m 10,5 km/h (2 Bft)
18.08.2015 14:36 17,2 C 17,8 C 82 % 0 lf 1014,8 hPa 0,0 l/m 2 min 0 min 380 W/m 8,4 km/h (2 Bft)
18.08.2015 14:38 17,2 C 17,8 C 81 % 0 lf 1014,8 hPa 0,0 l/m 0 min 0 min 362 W/m 8,4 km/h (2 Bft)
18.08.2015 14:40 17,2 C 18,3 C 81 % 0 lf 1014,8 hPa 0,0 l/m 0 min 0 min 366 W/m 6,3 km/h (2 Bft)
18.08.2015 14:42 17,3 C 18,3 C 81 % 0 lf 1014,8 hPa 0,0 l/m 2 min 0 min 400 W/m 8,4 km/h (2 Bft)
18.08.2015 14:44 17,3 C 18,3 C 81 % 0 lf 1014,8 hPa 0,0 l/m 2 min 0 min 422 W/m 12,6 km/h (3 Bft)
18.08.2015 14:46 17,4 C 18,3 C 81 % 0 lf 1014,7 hPa 0,0 l/m 2 min 0 min 491 W/m 12,6 km/h (3 Bft)
18.08.2015 14:48 17,5 C 18,3 C 81 % 0 lf 1014,7 hPa 0,0 l/m 2 min 0 min 752 W/m 14,6 km/h (3 Bft)
18.08.2015 14:50 17,7 C 18,9 C 81 % 0 lf 1014,7 hPa 0,0 l/m 2 min 0 min 909 W/m 10,5 km/h (2 Bft)
18.08.2015 14:52 17,9 C 18,9 C 81 % 0 lf 1014,6 hPa 0,0 l/m 2 min 0 min 705 W/m 10,5 km/h (2 Bft)
18.08.2015 14:54 18,2 C 18,9 C 82 % 0 lf 1014,7 hPa 0,0 l/m 2 min 0 min 874 W/m 8,4 km/h (2 Bft)
18.08.2015 14:56 18,3 C 18,9 C 80 % 0 lf 1014,6 hPa 0,0 l/m 2 min 0 min 878 W/m 23,0 km/h (4 Bft)
18.08.2015 14:58 18,5 C 18,3 C 78 % 0 lf 1014,7 hPa 0,0 l/m 2 min 0 min 651 W/m 16,7 km/h (3 Bft)
18.08.2015 15:00 18,5 C 18,3 C 77 % 0 lf 1014,8 hPa 0,0 l/m 0 min 0 min 272 W/m 4,2 km/h (1 Bft)
18.08.2015 15:02 18,6 C 18,3 C 77 % 0 lf 1014,8 hPa 0,0 l/m 0 min 0 min 335 W/m 12,6 km/h (3 Bft)
18.08.2015 15:04 18,6 C 18,3 C 76 % 0 lf 1014,8 hPa 0,0 l/m 2 min 0 min 493 W/m 14,6 km/h (3 Bft)
18.08.2015 15:06 18,6 C 18,3 C 76 % 0 lf 1014,8 hPa 0,0 l/m 0 min 0 min 338 W/m 10,5 km/h (2 Bft)
18.08.2015 15:08 18,7 C 18,3 C 77 % 0 lf 1014,8 hPa 0,0 l/m 0 min 0 min 283 W/m 12,6 km/h (3 Bft)
18.08.2015 15:10 18,7 C 17,8 C 76 % 0 lf 1014,8 hPa 0,0 l/m 0 min 0 min 241 W/m 12,6 km/h (3 Bft)
18.08.2015 15:12 18,7 C 17,8 C 76 % 0 lf 1014,9 hPa 0,0 l/m 0 min 0 min 210 W/m 12,6 km/h (3 Bft)
18.08.2015 15:14 18,6 C 17,8 C 76 % 0 lf 1014,9 hPa 0,0 l/m 0 min 0 min 195 W/m 12,6 km/h (3 Bft)
18.08.2015 15:16 18,6 C 17,2 C 75 % 0 lf 1014,8 hPa 0,0 l/m 0 min 0 min 190 W/m 12,6 km/h (3 Bft)
18.08.2015 15:18 18,6 C 17,2 C 75 % 0 lf 1014,7 hPa 0,0 l/m 0 min 0 min 221 W/m 12,6 km/h (3 Bft)
18.08.2015 15:20 18,6 C 17,2 C 76 % 0 lf 1014,8 hPa 0,0 l/m 0 min 0 min 286 W/m 10,5 km/h (2 Bft)
18.08.2015 15:22 18,6 C 17,8 C 76 % 0 lf 1014,8 hPa 0,0 l/m 2 min 0 min 378 W/m 12,6 km/h (3 Bft)
18.08.2015 15:24 18,6 C 18,3 C 77 % 0 lf 1014,8 hPa 0,0 l/m 2 min 0 min 450 W/m 14,6 km/h (3 Bft)
18.08.2015 15:26 18,6 C 18,3 C 77 % 0 lf 1014,8 hPa 0,0 l/m 2 min 0 min 665 W/m 10,5 km/h (2 Bft)
18.08.2015 15:28 18,6 C 18,3 C 76 % 0 lf 1014,9 hPa 0,0 l/m 0 min 0 min 243 W/m 12,6 km/h (3 Bft)
18.08.2015 15:30 18,6 C 17,8 C 76 % 0 lf 1014,9 hPa 0,0 l/m 0 min 0 min 235 W/m 8,4 km/h (2 Bft)
18.08.2015 15:32 18,5 C 17,8 C 75 % 0 lf 1014,8 hPa 0,0 l/m 0 min 0 min 219 W/m 10,5 km/h (2 Bft)
18.08.2015 15:34 18,5 C 17,8 C 76 % 0 lf 1014,9 hPa 0,0 l/m 0 min 0 min 198 W/m 8,4 km/h (2 Bft)
18.08.2015 15:36 18,5 C 17,2 C 76 % 0 lf 1014,9 hPa 0,0 l/m 0 min 0 min 169 W/m 8,4 km/h (2 Bft)
18.08.2015 15:38 18,5 C 17,2 C 76 % 0 lf 1015,0 hPa 0,0 l/m 0 min 0 min 142 W/m 6,3 km/h (2 Bft)
18.08.2015 15:40 18,4 C 17,2 C 76 % 0 lf 1015,0 hPa 0,0 l/m 0 min 0 min 120 W/m 8,4 km/h (2 Bft)
18.08.2015 15:42 18,4 C 16,7 C 76 % 0 lf 1015,0 hPa 0,0 l/m 0 min 0 min 100 W/m 6,3 km/h (2 Bft)
18.08.2015 15:44 18,4 C 16,7 C 76 % 0 lf 1015,0 hPa 0,0 l/m 0 min 0 min 86 W/m 8,4 km/h (2 Bft)
18.08.2015 15:46 18,3 C 16,7 C 76 % 0 lf 1015,0 hPa 0,0 l/m 0 min 0 min 72 W/m 6,3 km/h (2 Bft)
18.08.2015 15:48 18,3 C 16,1 C 76 % 0 lf 1015,1 hPa 0,0 l/m 0 min 0 min 61 W/m 10,5 km/h (2 Bft)
18.08.2015 15:50 18,2 C 16,1 C 76 % 0 lf 1015,1 hPa 0,0 l/m 0 min 0 min 51 W/m 10,5 km/h (2 Bft)
18.08.2015 15:52 18,2 C 16,1 C 76 % 0 lf 1015,1 hPa 0,0 l/m 0 min 0 min 47 W/m 10,5 km/h (2 Bft)
18.08.2015 15:54 18,1 C 16,1 C 76 % 0 lf 1015,1 hPa 0,0 l/m 0 min 0 min 47 W/m 8,4 km/h (2 Bft)
18.08.2015 15:56 18,1 C 15,6 C 76 % 0 lf 1015,1 hPa 0,0 l/m 0 min 0 min 48 W/m 8,4 km/h (2 Bft)
18.08.2015 15:58 18,0 C 15,6 C 76 % 0 lf 1015,2 hPa 0,0 l/m 0 min 0 min 55 W/m 8,4 km/h (2 Bft)
18.08.2015 16:00 17,9 C 15,6 C 76 % 0 lf 1015,2 hPa 0,0 l/m 0 min 0 min 69 W/m 6,3 km/h (2 Bft)
18.08.2015 16:02 17,9 C 15,6 C 77 % 0 lf 1015,1 hPa 0,0 l/m 0 min 0 min 87 W/m 6,3 km/h (2 Bft)
18.08.2015 16:04 17,9 C 16,1 C 77 % 0 lf 1015,2 hPa 0,0 l/m 0 min 0 min 109 W/m 8,4 km/h (2 Bft)
18.08.2015 16:06 17,8 C 16,1 C 78 % 0 lf 1015,2 hPa 0,0 l/m 0 min 0 min 135 W/m 8,4 km/h (2 Bft)
18.08.2015 16:08 17,8 C 16,1 C 78 % 0 lf 1015,2 hPa 0,0 l/m 0 min 0 min 168 W/m 6,3 km/h (2 Bft)
18.08.2015 16:10 17,8 C 16,7 C 78 % 0 lf 1015,2 hPa 0,0 l/m 0 min 0 min 222 W/m 8,4 km/h (2 Bft)
18.08.2015 16:12 17,7 C 16,7 C 79 % 0 lf 1015,2 hPa 0,0 l/m 0 min 0 min 312 W/m 6,3 km/h (2 Bft)
18.08.2015 16:14 17,8 C 17,8 C 80 % 0 lf 1015,3 hPa 0,0 l/m 2 min 0 min 338 W/m 6,3 km/h (2 Bft)
18.08.2015 16:16 17,8 C 18,3 C 79 % 0 lf 1015,3 hPa 0,0 l/m 2 min 0 min 366 W/m 6,3 km/h (2 Bft)
18.08.2015 16:18 17,8 C 18,3 C 79 % 0 lf 1015,3 hPa 0,0 l/m 2 min 0 min 362 W/m 6,3 km/h (2 Bft)
18.08.2015 16:20 17,9 C 18,3 C 80 % 0 lf 1015,3 hPa 0,0 l/m 2 min 0 min 339 W/m 8,4 km/h (2 Bft)
18.08.2015 16:22 17,9 C 18,3 C 79 % 0 lf 1015,3 hPa 0,0 l/m 2 min 0 min 350 W/m 6,3 km/h (2 Bft)
18.08.2015 16:24 18,0 C 18,9 C 80 % 0 lf 1015,4 hPa 0,0 l/m 2 min 0 min 386 W/m 10,5 km/h (2 Bft)
18.08.2015 16:26 18,1 C 18,9 C 79 % 0 lf 1015,4 hPa 0,0 l/m 2 min 0 min 401 W/m 6,3 km/h (2 Bft)
18.08.2015 16:28 18,2 C 18,9 C 79 % 0 lf 1015,3 hPa 0,0 l/m 2 min 0 min 412 W/m 8,4 km/h (2 Bft)
18.08.2015 16:30 18,2 C 18,9 C 78 % 0 lf 1015,3 hPa 0,0 l/m 2 min 0 min 379 W/m 10,5 km/h (2 Bft)
18.08.2015 16:32 18,3 C 18,9 C 77 % 0 lf 1015,3 hPa 0,0 l/m 2 min 0 min 385 W/m 6,3 km/h (2 Bft)
18.08.2015 16:34 18,3 C 19,4 C 77 % 0 lf 1015,3 hPa 0,0 l/m 2 min 0 min 408 W/m 10,5 km/h (2 Bft)
18.08.2015 16:36 18,4 C 19,4 C 77 % 0 lf 1015,3 hPa 0,0 l/m 2 min 0 min 465 W/m 8,4 km/h (2 Bft)
18.08.2015 16:38 18,6 C 19,4 C 77 % 0 lf 1015,3 hPa 0,0 l/m 2 min 0 min 387 W/m 8,4 km/h (2 Bft)
18.08.2015 16:40 18,6 C 19,4 C 76 % 0 lf 1015,3 hPa 0,0 l/m 2 min 0 min 368 W/m 10,5 km/h (2 Bft)
18.08.2015 16:42 18,6 C 19,4 C 76 % 0 lf 1015,3 hPa 0,0 l/m 2 min 0 min 373 W/m 10,5 km/h (2 Bft)
18.08.2015 16:44 18,7 C 19,4 C 75 % 0 lf 1015,2 hPa 0,0 l/m 2 min 0 min 360 W/m 6,3 km/h (2 Bft)
18.08.2015 16:46 18,7 C 18,9 C 75 % 0 lf 1015,2 hPa 0,0 l/m 2 min 0 min 310 W/m 12,6 km/h (3 Bft)
18.08.2015 16:48 18,8 C 18,9 C 75 % 0 lf 1015,3 hPa 0,0 l/m 0 min 0 min 279 W/m 12,6 km/h (3 Bft)
18.08.2015 16:50 18,8 C 18,9 C 75 % 0 lf 1015,3 hPa 0,0 l/m 0 min 0 min 272 W/m 6,3 km/h (2 Bft)
18.08.2015 16:52 18,9 C 18,9 C 75 % 0 lf 1015,3 hPa 0,0 l/m 2 min 0 min 685 W/m 4,2 km/h (1 Bft)
18.08.2015 16:54 19,0 C 18,9 C 74 % 0 lf 1015,3 hPa 0,0 l/m 2 min 0 min 622 W/m 8,4 km/h (2 Bft)
18.08.2015 16:56 19,1 C 18,3 C 74 % 0 lf 1015,4 hPa 0,0 l/m 2 min 0 min 426 W/m 14,6 km/h (3 Bft)
18.08.2015 16:58 19,1 C 18,3 C 73 % 0 lf 1015,4 hPa 0,0 l/m 0 min 0 min 179 W/m 10,5 km/h (2 Bft)
18.08.2015 17:00 19,2 C 17,8 C 73 % 0 lf 1015,4 hPa 0,0 l/m 0 min 0 min 156 W/m 6,3 km/h (2 Bft)
18.08.2015 17:02 19,2 C 17,8 C 74 % 0 lf 1015,4 hPa 0,0 l/m 0 min 0 min 144 W/m 12,6 km/h (3 Bft)
18.08.2015 17:04 19,1 C 17,8 C 73 % 0 lf 1015,5 hPa 0,0 l/m 0 min 0 min 136 W/m 14,6 km/h (3 Bft)
18.08.2015 17:06 19,1 C 17,2 C 73 % 0 lf 1015,4 hPa 0,0 l/m 0 min 0 min 145 W/m 8,4 km/h (2 Bft)
18.08.2015 17:08 19,1 C 17,8 C 73 % 0 lf 1015,4 hPa 0,0 l/m 0 min 0 min 157 W/m 8,4 km/h (2 Bft)
18.08.2015 17:10 19,1 C 17,8 C 73 % 0 lf 1015,4 hPa 0,0 l/m 0 min 0 min 169 W/m 8,4 km/h (2 Bft)
18.08.2015 17:12 19,1 C 17,8 C 74 % 0 lf 1015,4 hPa 0,0 l/m 0 min 0 min 177 W/m 10,5 km/h (2 Bft)
18.08.2015 17:14 19,1 C 17,8 C 73 % 0 lf 1015,4 hPa 0,0 l/m 0 min 0 min 170 W/m 12,6 km/h (3 Bft)
18.08.2015 17:16 19,0 C 17,2 C 73 % 0 lf 1015,4 hPa 0,0 l/m 0 min 0 min 162 W/m 14,6 km/h (3 Bft)
18.08.2015 17:18 18,9 C 17,2 C 73 % 0 lf 1015,4 hPa 0,0 l/m 0 min 0 min 154 W/m 8,4 km/h (2 Bft)
18.08.2015 17:20 18,9 C 17,2 C 73 % 0 lf 1015,3 hPa 0,0 l/m 0 min 0 min 129 W/m 10,5 km/h (2 Bft)
18.08.2015 17:22 18,9 C 17,2 C 73 % 0 lf 1015,4 hPa 0,0 l/m 0 min 0 min 121 W/m 8,4 km/h (2 Bft)
18.08.2015 17:24 18,9 C 17,2 C 74 % 0 lf 1015,4 hPa 0,0 l/m 0 min 0 min 104 W/m 8,4 km/h (2 Bft)
18.08.2015 17:26 18,8 C 17,2 C 74 % 0 lf 1015,3 hPa 0,0 l/m 0 min 0 min 96 W/m 10,5 km/h (2 Bft)
18.08.2015 17:28 18,8 C 17,2 C 74 % 0 lf 1015,3 hPa 0,0 l/m 0 min 0 min 95 W/m 10,5 km/h (2 Bft)
18.08.2015 17:30 18,8 C 17,2 C 74 % 0 lf 1015,3 hPa 0,0 l/m 0 min 0 min 89 W/m 8,4 km/h (2 Bft)
18.08.2015 17:32 18,7 C 16,7 C 74 % 0 lf 1015,3 hPa 0,0 l/m 0 min 0 min 75 W/m 12,6 km/h (3 Bft)
18.08.2015 17:34 18,7 C 16,7 C 74 % 0 lf 1015,3 hPa 0,0 l/m 0 min 0 min 61 W/m 12,6 km/h (3 Bft)
18.08.2015 17:36 18,6 C 16,7 C 75 % 0 lf 1015,3 hPa 0,0 l/m 0 min 0 min 54 W/m 8,4 km/h (2 Bft)
18.08.2015 17:38 18,6 C 16,7 C 75 % 0 lf 1015,5 hPa 0,0 l/m 0 min 0 min 46 W/m 4,2 km/h (1 Bft)
18.08.2015 17:40 18,5 C 16,1 C 75 % 0 lf 1015,5 hPa 0,0 l/m 0 min 0 min 39 W/m 6,3 km/h (2 Bft)
18.08.2015 17:42 18,4 C 16,1 C 76 % 0 lf 1015,6 hPa 0,0 l/m 0 min 0 min 39 W/m 6,3 km/h (2 Bft)
18.08.2015 17:44 18,4 C 16,1 C 76 % 0 lf 1015,6 hPa 0,0 l/m 0 min 0 min 39 W/m 4,2 km/h (1 Bft)
18.08.2015 17:46 18,3 C 16,1 C 76 % 0 lf 1015,6 hPa 0,0 l/m 0 min 0 min 37 W/m 8,4 km/h (2 Bft)
18.08.2015 17:48 18,3 C 16,1 C 76 % 0 lf 1015,7 hPa 0,0 l/m 0 min 0 min 35 W/m 6,3 km/h (2 Bft)
18.08.2015 17:50 18,2 C 16,1 C 77 % 0 lf 1015,7 hPa 0,0 l/m 0 min 0 min 33 W/m 4,2 km/h (1 Bft)
18.08.2015 17:52 18,2 C 16,1 C 77 % 0 lf 1015,7 hPa 0,0 l/m 0 min 0 min 32 W/m 2,1 km/h (1 Bft)
18.08.2015 17:54 18,2 C 16,1 C 77 % 0 lf 1015,6 hPa 0,0 l/m 0 min 0 min 28 W/m 4,2 km/h (1 Bft)
18.08.2015 17:56 18,1 C 16,1 C 77 % 0 lf 1015,7 hPa 0,0 l/m 0 min 0 min 26 W/m 4,2 km/h (1 Bft)
18.08.2015 17:58 18,1 C 15,6 C 77 % 0 lf 1015,7 hPa 0,0 l/m 0 min 0 min 30 W/m 4,2 km/h (1 Bft)
18.08.2015 18:00 18,1 C 15,6 C 78 % 0 lf 1015,6 hPa 0,0 l/m 0 min 0 min 34 W/m 4,2 km/h (1 Bft)
18.08.2015 18:02 18,0 C 15,6 C 77 % 0 lf 1015,6 hPa 0,0 l/m 0 min 0 min 37 W/m 6,3 km/h (2 Bft)
18.08.2015 18:05 17,9 C 16,1 C 77 % 0 lf 1015,7 hPa 0,0 l/m 0 min 0 min 47 W/m 6,3 km/h (2 Bft)
18.08.2015 18:08 17,9 C 16,1 C 78 % 0 lf 1015,7 hPa 0,0 l/m 0 min 0 min 45 W/m 6,3 km/h (2 Bft)
18.08.2015 18:10 17,9 C 16,1 C 78 % 0 lf 1015,7 hPa 0,0 l/m 0 min 0 min 49 W/m 10,5 km/h (2 Bft)
18.08.2015 18:12 17,8 C 15,6 C 78 % 0 lf 1015,7 hPa 0,0 l/m 0 min 0 min 49 W/m 8,4 km/h (2 Bft)
18.08.2015 18:14 17,8 C 15,6 C 79 % 0 lf 1015,7 hPa 0,0 l/m 0 min 0 min 52 W/m 8,4 km/h (2 Bft)
18.08.2015 18:16 17,7 C 15,6 C 79 % 0 lf 1015,7 hPa 0,0 l/m 0 min 0 min 58 W/m 8,4 km/h (2 Bft)
18.08.2015 18:18 17,7 C 15,6 C 79 % 0 lf 1015,7 hPa 0,0 l/m 0 min 0 min 71 W/m 6,3 km/h (2 Bft)
18.08.2015 18:20 17,7 C 15,6 C 79 % 0 lf 1015,7 hPa 0,0 l/m 0 min 0 min 98 W/m 6,3 km/h (2 Bft)
18.08.2015 18:22 17,6 C 15,6 C 79 % 0 lf 1015,7 hPa 0,0 l/m 0 min 0 min 126 W/m 6,3 km/h (2 Bft)
18.08.2015 18:24 17,6 C 16,1 C 79 % 0 lf 1015,7 hPa 0,0 l/m 0 min 0 min 109 W/m 4,2 km/h (1 Bft)
18.08.2015 18:26 17,6 C 16,1 C 80 % 0 lf 1015,7 hPa 0,0 l/m 0 min 0 min 111 W/m 2,1 km/h (1 Bft)
18.08.2015 18:28 17,5 C 16,1 C 80 % 0 lf 1015,7 hPa 0,0 l/m 0 min 0 min 115 W/m 4,2 km/h (1 Bft)
18.08.2015 18:30 17,5 C 16,1 C 81 % 0 lf 1015,7 hPa 0,0 l/m 0 min 0 min 119 W/m 2,1 km/h (1 Bft)
18.08.2015 18:32 17,5 C 16,1 C 81 % 0 lf 1015,7 hPa 0,0 l/m 0 min 0 min 130 W/m 2,1 km/h (1 Bft)
18.08.2015 18:34 17,5 C 16,7 C 81 % 0 lf 1015,7 hPa 0,0 l/m 0 min 0 min 146 W/m 2,1 km/h (1 Bft)
18.08.2015 18:36 17,5 C 16,7 C 81 % 0 lf 1015,7 hPa 0,0 l/m 0 min 0 min 159 W/m 2,1 km/h (1 Bft)
18.08.2015 18:38 17,4 C 16,7 C 81 % 0 lf 1015,7 hPa 0,0 l/m 2 min 0 min 170 W/m 4,2 km/h (1 Bft)
18.08.2015 18:40 17,4 C 16,7 C 81 % 0 lf 1015,7 hPa 0,0 l/m 2 min 0 min 168 W/m 4,2 km/h (1 Bft)
18.08.2015 18:42 17,4 C 16,7 C 81 % 0 lf 1015,7 hPa 0,0 l/m 2 min 0 min 161 W/m 2,1 km/h (1 Bft)
18.08.2015 18:44 17,4 C 16,7 C 81 % 0 lf 1015,7 hPa 0,0 l/m 0 min 0 min 154 W/m 2,1 km/h (1 Bft)
18.08.2015 18:46 17,4 C 16,7 C 81 % 0 lf 1015,7 hPa 0,0 l/m 0 min 0 min 152 W/m 6,3 km/h (2 Bft)
18.08.2015 18:48 17,4 C 16,7 C 81 % 0 lf 1015,7 hPa 0,0 l/m 0 min 0 min 148 W/m 4,2 km/h (1 Bft)
18.08.2015 18:50 17,5 C 16,7 C 81 % 0 lf 1015,7 hPa 0,0 l/m 0 min 0 min 140 W/m 4,2 km/h (1 Bft)
18.08.2015 18:52 17,5 C 16,7 C 81 % 0 lf 1015,7 hPa 0,0 l/m 0 min 0 min 134 W/m 4,2 km/h (1 Bft)
18.08.2015 18:54 17,5 C 16,7 C 80 % 0 lf 1015,7 hPa 0,0 l/m 0 min 0 min 129 W/m 4,2 km/h (1 Bft)
18.08.2015 18:56 17,5 C 16,7 C 81 % 0 lf 1015,7 hPa 0,0 l/m 0 min 0 min 124 W/m 2,1 km/h (1 Bft)
18.08.2015 18:58 17,5 C 16,7 C 81 % 0 lf 1015,7 hPa 0,0 l/m 0 min 0 min 128 W/m 4,2 km/h (1 Bft)
18.08.2015 19:00 17,5 C 16,7 C 81 % 0 lf 1015,7 hPa 0,0 l/m 0 min 0 min 128 W/m 6,3 km/h (2 Bft)
18.08.2015 19:02 17,6 C 16,7 C 81 % 0 lf 1015,7 hPa 0,0 l/m 2 min 0 min 136 W/m 2,1 km/h (1 Bft)
18.08.2015 19:04 17,6 C 16,7 C 81 % 0 lf 1015,7 hPa 0,0 l/m 2 min 0 min 178 W/m 2,1 km/h (1 Bft)
18.08.2015 19:06 17,6 C 16,7 C 81 % 0 lf 1015,7 hPa 0,0 l/m 2 min 0 min 171 W/m 2,1 km/h (1 Bft)
18.08.2015 19:08 17,6 C 16,7 C 81 % 0 lf 1015,7 hPa 0,0 l/m 0 min 0 min 110 W/m 4,2 km/h (1 Bft)
18.08.2015 19:10 17,6 C 16,7 C 81 % 0 lf 1015,7 hPa 0,0 l/m 0 min 0 min 101 W/m 6,3 km/h (2 Bft)
18.08.2015 19:12 17,6 C 16,7 C 81 % 0 lf 1015,8 hPa 0,0 l/m 0 min 0 min 95 W/m 6,3 km/h (2 Bft)
18.08.2015 19:14 17,6 C 16,7 C 81 % 0 lf 1015,7 hPa 0,0 l/m 0 min 0 min 95 W/m 6,3 km/h (2 Bft)
18.08.2015 19:16 17,7 C 16,7 C 81 % 0 lf 1015,7 hPa 0,0 l/m 0 min 0 min 94 W/m 10,5 km/h (2 Bft)
18.08.2015 19:18 17,7 C 16,7 C 81 % 0 lf 1015,7 hPa 0,0 l/m 0 min 0 min 90 W/m 6,3 km/h (2 Bft)
18.08.2015 19:20 17,7 C 16,7 C 81 % 0 lf 1015,7 hPa 0,0 l/m 0 min 0 min 85 W/m 12,6 km/h (3 Bft)
18.08.2015 19:22 17,6 C 16,7 C 80 % 0 lf 1015,7 hPa 0,0 l/m 0 min 0 min 84 W/m 14,6 km/h (3 Bft)
18.08.2015 19:24 17,6 C 16,7 C 79 % 0 lf 1015,7 hPa 0,0 l/m 0 min 0 min 84 W/m 10,5 km/h (2 Bft)
18.08.2015 19:26 17,6 C 16,7 C 79 % 0 lf 1015,8 hPa 0,0 l/m 0 min 0 min 84 W/m 6,3 km/h (2 Bft)
18.08.2015 19:28 17,6 C 16,7 C 79 % 0 lf 1015,8 hPa 0,0 l/m 0 min 0 min 91 W/m 6,3 km/h (2 Bft)
18.08.2015 19:30 17,6 C 16,7 C 79 % 0 lf 1015,8 hPa 0,0 l/m 2 min 0 min 96 W/m 8,4 km/h (2 Bft)
18.08.2015 19:32 17,6 C 16,7 C 79 % 0 lf 1015,8 hPa 0,0 l/m 0 min 0 min 92 W/m 6,3 km/h (2 Bft)
18.08.2015 19:34 17,6 C 16,7 C 79 % 0 lf 1015,8 hPa 0,0 l/m 0 min 0 min 90 W/m 10,5 km/h (2 Bft)
18.08.2015 19:36 17,6 C 16,1 C 79 % 0 lf 1015,8 hPa 0,0 l/m 0 min 0 min 87 W/m 14,6 km/h (3 Bft)
18.08.2015 19:38 17,6 C 16,1 C 79 % 0 lf 1015,7 hPa 0,0 l/m 0 min 0 min 83 W/m 12,6 km/h (3 Bft)
18.08.2015 19:40 17,6 C 16,1 C 78 % 0 lf 1015,7 hPa 0,0 l/m 0 min 0 min 78 W/m 10,5 km/h (2 Bft)
18.08.2015 19:42 17,6 C 16,1 C 78 % 0 lf 1015,8 hPa 0,0 l/m 0 min 0 min 72 W/m 10,5 km/h (2 Bft)
18.08.2015 19:44 17,6 C 16,1 C 79 % 0 lf 1015,8 hPa 0,0 l/m 0 min 0 min 65 W/m 10,5 km/h (2 Bft)
18.08.2015 19:46 17,6 C 16,1 C 78 % 0 lf 1015,9 hPa 0,0 l/m 0 min 0 min 57 W/m 12,6 km/h (3 Bft)
18.08.2015 19:48 17,5 C 16,1 C 79 % 0 lf 1015,9 hPa 0,0 l/m 0 min 0 min 49 W/m 10,5 km/h (2 Bft)
18.08.2015 19:50 17,5 C 16,1 C 78 % 0 lf 1015,9 hPa 0,0 l/m 0 min 0 min 44 W/m 12,6 km/h (3 Bft)
18.08.2015 19:52 17,4 C 16,1 C 78 % 0 lf 1015,9 hPa 0,0 l/m 0 min 0 min 40 W/m 8,4 km/h (2 Bft)
18.08.2015 19:54 17,4 C 15,6 C 78 % 0 lf 1015,9 hPa 0,0 l/m 0 min 0 min 37 W/m 16,7 km/h (3 Bft)
18.08.2015 19:56 17,4 C 15,6 C 78 % 0 lf 1015,9 hPa 0,0 l/m 0 min 0 min 33 W/m 16,7 km/h (3 Bft)
18.08.2015 19:58 17,3 C 15,6 C 77 % 0 lf 1015,9 hPa 0,0 l/m 0 min 0 min 30 W/m 12,6 km/h (3 Bft)
18.08.2015 20:00 17,3 C 15,6 C 77 % 0 lf 1016,0 hPa 0,0 l/m 0 min 0 min 28 W/m 12,6 km/h (3 Bft)
18.08.2015 20:02 17,3 C 15,6 C 77 % 0 lf 1015,9 hPa 0,0 l/m 0 min 0 min 25 W/m 10,5 km/h (2 Bft)
18.08.2015 20:04 17,3 C 15,6 C 77 % 0 lf 1015,9 hPa 0,0 l/m 0 min 0 min 22 W/m 8,4 km/h (2 Bft)
18.08.2015 20:06 17,2 C 15,6 C 77 % 0 lf 1015,9 hPa 0,0 l/m 0 min 0 min 20 W/m 14,6 km/h (3 Bft)
18.08.2015 20:08 17,2 C 15,6 C 77 % 0 lf 1016,0 hPa 0,0 l/m 0 min 0 min 19 W/m 12,6 km/h (3 Bft)
18.08.2015 20:10 17,2 C 15,6 C 77 % 0 lf 1015,9 hPa 0,0 l/m 0 min 0 min 18 W/m 6,3 km/h (2 Bft)
18.08.2015 20:12 17,2 C 15,6 C 77 % 0 lf 1016,0 hPa 0,0 l/m 0 min 0 min 18 W/m 8,4 km/h (2 Bft)
18.08.2015 20:14 17,2 C 15,0 C 77 % 0 lf 1016,0 hPa 0,0 l/m 0 min 0 min 17 W/m 10,5 km/h (2 Bft)
18.08.2015 20:16 17,1 C 15,0 C 77 % 0 lf 1016,1 hPa 0,0 l/m 0 min 0 min 16 W/m 10,5 km/h (2 Bft)
18.08.2015 20:18 17,1 C 15,0 C 77 % 0 lf 1016,1 hPa 0,0 l/m 0 min 0 min 16 W/m 8,4 km/h (2 Bft)
18.08.2015 20:20 17,1 C 15,0 C 77 % 0 lf 1016,1 hPa 0,0 l/m 0 min 0 min 16 W/m 10,5 km/h (2 Bft)
18.08.2015 20:22 17,1 C 15,0 C 77 % 0 lf 1016,1 hPa 0,0 l/m 0 min 0 min 16 W/m 8,4 km/h (2 Bft)
18.08.2015 20:24 17,0 C 15,0 C 77 % 0 lf 1016,2 hPa 0,0 l/m 0 min 0 min 16 W/m 8,4 km/h (2 Bft)
18.08.2015 20:26 17,0 C 15,0 C 77 % 0 lf 1016,2 hPa 0,0 l/m 0 min 0 min 14 W/m 8,4 km/h (2 Bft)
18.08.2015 20:28 16,9 C 15,0 C 77 % 0 lf 1016,1 hPa 0,0 l/m 0 min 0 min 14 W/m 6,3 km/h (2 Bft)
18.08.2015 20:30 16,9 C 15,0 C 77 % 0 lf 1016,1 hPa 0,0 l/m 0 min 0 min 14 W/m 8,4 km/h (2 Bft)
18.08.2015 20:32 16,9 C 15,0 C 78 % 0 lf 1016,2 hPa 0,0 l/m 0 min 0 min 12 W/m 4,2 km/h (1 Bft)
18.08.2015 20:34 16,9 C 15,0 C 78 % 0 lf 1016,2 hPa 0,0 l/m 0 min 0 min 11 W/m 6,3 km/h (2 Bft)
18.08.2015 20:36 16,9 C 15,0 C 78 % 0 lf 1016,2 hPa 0,0 l/m 0 min 0 min 11 W/m 8,4 km/h (2 Bft)
18.08.2015 20:38 16,9 C 15,0 C 78 % 0 lf 1016,2 hPa 0,0 l/m 0 min 0 min 10 W/m 8,4 km/h (2 Bft)
18.08.2015 20:40 16,8 C 15,0 C 78 % 0 lf 1016,3 hPa 0,0 l/m 0 min 0 min 9 W/m 8,4 km/h (2 Bft)
18.08.2015 20:42 16,8 C 15,0 C 78 % 0 lf 1016,3 hPa 0,0 l/m 0 min 0 min 8 W/m 6,3 km/h (2 Bft)
18.08.2015 20:44 16,8 C 15,0 C 78 % 0 lf 1016,3 hPa 0,0 l/m 0 min 0 min 7 W/m 10,5 km/h (2 Bft)
18.08.2015 20:46 16,7 C 15,0 C 78 % 0 lf 1016,3 hPa 0,0 l/m 0 min 0 min 5 W/m 6,3 km/h (2 Bft)
18.08.2015 20:48 16,7 C 15,0 C 78 % 0 lf 1016,4 hPa 0,0 l/m 0 min 0 min 5 W/m 8,4 km/h (2 Bft)
18.08.2015 20:50 16,7 C 15,0 C 79 % 0 lf 1016,4 hPa 0,0 l/m 0 min 0 min 5 W/m 8,4 km/h (2 Bft)
18.08.2015 20:52 16,7 C 15,0 C 79 % 0 lf 1016,4 hPa 0,0 l/m 0 min 0 min 2 W/m 10,5 km/h (2 Bft)
18.08.2015 20:54 16,6 C 15,0 C 79 % 0 lf 1016,4 hPa 0,0 l/m 0 min 0 min 0 W/m 12,6 km/h (3 Bft)
18.08.2015 20:56 16,6 C 15,0 C 79 % 0 lf 1016,5 hPa 0,0 l/m 0 min 0 min 0 W/m 12,6 km/h (3 Bft)
18.08.2015 20:58 16,6 C 15,0 C 79 % 0 lf 1016,4 hPa 0,0 l/m 0 min 0 min 0 W/m 12,6 km/h (3 Bft)
18.08.2015 21:00 16,6 C 15,0 C 79 % 0 lf 1016,5 hPa 0,0 l/m 0 min 0 min 0 W/m 10,5 km/h (2 Bft)
18.08.2015 21:02 16,5 C 14,4 C 79 % 0 lf 1016,5 hPa 0,0 l/m 0 min 0 min 0 W/m 10,5 km/h (2 Bft)
18.08.2015 21:04 16,4 C 14,4 C 80 % 0 lf 1016,6 hPa 0,0 l/m 0 min 0 min 0 W/m 14,6 km/h (3 Bft)
18.08.2015 21:06 16,4 C 15,0 C 80 % 0 lf 1016,6 hPa 0,0 l/m 0 min 0 min 0 W/m 14,6 km/h (3 Bft)
18.08.2015 21:08 16,4 C 14,4 C 80 % 0 lf 1016,5 hPa 0,0 l/m 0 min 0 min 0 W/m 16,7 km/h (3 Bft)
18.08.2015 21:10 16,4 C 14,4 C 80 % 0 lf 1016,6 hPa 0,0 l/m 0 min 0 min 0 W/m 12,6 km/h (3 Bft)
18.08.2015 21:12 16,4 C 14,4 C 81 % 0 lf 1016,6 hPa 0,0 l/m 0 min 0 min 0 W/m 16,7 km/h (3 Bft)
18.08.2015 21:14 16,3 C 14,4 C 81 % 0 lf 1016,6 hPa 0,0 l/m 0 min 0 min 0 W/m 10,5 km/h (2 Bft)
18.08.2015 21:16 16,3 C 14,4 C 81 % 0 lf 1016,5 hPa 0,0 l/m 0 min 0 min 0 W/m 8,4 km/h (2 Bft)
18.08.2015 21:18 16,3 C 14,4 C 81 % 0 lf 1016,6 hPa 0,0 l/m 0 min 0 min 0 W/m 10,5 km/h (2 Bft)
18.08.2015 21:20 16,3 C 14,4 C 81 % 0 lf 1016,6 hPa 0,0 l/m 0 min 0 min 0 W/m 8,4 km/h (2 Bft)
18.08.2015 21:22 16,3 C 14,4 C 81 % 0 lf 1016,6 hPa 0,0 l/m 0 min 0 min 0 W/m 10,5 km/h (2 Bft)
18.08.2015 21:24 16,3 C 14,4 C 82 % 0 lf 1016,5 hPa 0,0 l/m 0 min 0 min 0 W/m 6,3 km/h (2 Bft)
18.08.2015 21:26 16,2 C 14,4 C 82 % 0 lf 1016,6 hPa 0,0 l/m 0 min 0 min 0 W/m 8,4 km/h (2 Bft)
18.08.2015 21:28 16,2 C 14,4 C 82 % 0 lf 1016,7 hPa 0,0 l/m 0 min 0 min 0 W/m 4,2 km/h (1 Bft)
18.08.2015 21:30 16,2 C 13,9 C 82 % 0 lf 1016,7 hPa 0,0 l/m 0 min 0 min 0 W/m 4,2 km/h (1 Bft)
18.08.2015 21:32 16,2 C 13,9 C 82 % 0 lf 1016,8 hPa 0,0 l/m 0 min 0 min 0 W/m 8,4 km/h (2 Bft)
18.08.2015 21:34 16,2 C 13,9 C 82 % 0 lf 1016,8 hPa 0,0 l/m 0 min 0 min 0 W/m 8,4 km/h (2 Bft)
18.08.2015 21:36 16,1 C 13,9 C 82 % 0 lf 1016,8 hPa 0,0 l/m 0 min 0 min 0 W/m 6,3 km/h (2 Bft)
18.08.2015 21:38 16,1 C 13,9 C 82 % 0 lf 1016,8 hPa 0,0 l/m 0 min 0 min 0 W/m 6,3 km/h (2 Bft)
18.08.2015 21:40 16,1 C 13,9 C 83 % 0 lf 1016,8 hPa 0,0 l/m 0 min 0 min 0 W/m 6,3 km/h (2 Bft)
18.08.2015 21:42 16,1 C 13,9 C 83 % 0 lf 1016,9 hPa 0,0 l/m 0 min 0 min 0 W/m 6,3 km/h (2 Bft)
18.08.2015 21:44 16,0 C 13,9 C 83 % 0 lf 1016,9 hPa 0,0 l/m 0 min 0 min 0 W/m 6,3 km/h (2 Bft)
18.08.2015 21:46 15,9 C 13,9 C 83 % 0 lf 1016,9 hPa 0,0 l/m 0 min 0 min 0 W/m 6,3 km/h (2 Bft)
18.08.2015 21:48 15,9 C 13,9 C 83 % 0 lf 1016,8 hPa 0,0 l/m 0 min 0 min 0 W/m 6,3 km/h (2 Bft)
18.08.2015 21:50 15,9 C 13,9 C 83 % 0 lf 1016,9 hPa 0,0 l/m 0 min 0 min 0 W/m 6,3 km/h (2 Bft)
18.08.2015 21:52 15,9 C 13,9 C 83 % 0 lf 1016,9 hPa 0,0 l/m 0 min 0 min 0 W/m 6,3 km/h (2 Bft)
18.08.2015 21:54 15,9 C 13,9 C 83 % 0 lf 1017,0 hPa 0,0 l/m 0 min 0 min 0 W/m 6,3 km/h (2 Bft)
18.08.2015 21:56 15,8 C 13,9 C 83 % 0 lf 1017,0 hPa 0,0 l/m 0 min 0 min 0 W/m 6,3 km/h (2 Bft)
18.08.2015 21:58 15,8 C 13,9 C 83 % 0 lf 1017,0 hPa 0,0 l/m 0 min 0 min 0 W/m 6,3 km/h (2 Bft)
18.08.2015 22:00 15,8 C 13,9 C 83 % 0 lf 1017,0 hPa 0,0 l/m 0 min 0 min 0 W/m 6,3 km/h (2 Bft)
18.08.2015 22:02 15,7 C 13,9 C 83 % 0 lf 1017,0 hPa 0,0 l/m 0 min 0 min 0 W/m 6,3 km/h (2 Bft)
18.08.2015 22:04 15,7 C 13,9 C 83 % 0 lf 1016,9 hPa 0,0 l/m 0 min 0 min 0 W/m 6,3 km/h (2 Bft)
18.08.2015 22:06 15,7 C 13,9 C 84 % 0 lf 1017,0 hPa 0,0 l/m 0 min 0 min 0 W/m 6,3 km/h (2 Bft)
18.08.2015 22:08 15,6 C 13,9 C 84 % 0 lf 1017,0 hPa 0,0 l/m 0 min 0 min 0 W/m 6,3 km/h (2 Bft)
18.08.2015 22:10 15,6 C 13,9 C 84 % 0 lf 1017,0 hPa 0,0 l/m 0 min 0 min 0 W/m 6,3 km/h (2 Bft)
18.08.2015 22:12 15,6 C 13,9 C 84 % 0 lf 1017,1 hPa 0,0 l/m 0 min 0 min 0 W/m 8,4 km/h (2 Bft)
18.08.2015 22:14 15,5 C 13,9 C 84 % 0 lf 1017,1 hPa 0,0 l/m 0 min 0 min 0 W/m 6,3 km/h (2 Bft)
18.08.2015 22:16 15,5 C 13,9 C 83 % 0 lf 1017,1 hPa 0,0 l/m 0 min 0 min 0 W/m 8,4 km/h (2 Bft)
18.08.2015 22:18 15,4 C 13,9 C 84 % 0 lf 1017,2 hPa 0,0 l/m 0 min 0 min 0 W/m 6,3 km/h (2 Bft)
18.08.2015 22:20 15,4 C 13,9 C 83 % 0 lf 1017,2 hPa 0,0 l/m 0 min 0 min 0 W/m 10,5 km/h (2 Bft)
18.08.2015 22:22 15,4 C 13,9 C 83 % 0 lf 1017,2 hPa 0,0 l/m 0 min 0 min 0 W/m 6,3 km/h (2 Bft)
18.08.2015 22:24 15,3 C 13,9 C 83 % 0 lf 1017,2 hPa 0,0 l/m 0 min 0 min 0 W/m 8,4 km/h (2 Bft)
18.08.2015 22:26 15,3 C 13,9 C 83 % 0 lf 1017,2 hPa 0,0 l/m 0 min 0 min 0 W/m 10,5 km/h (2 Bft)
18.08.2015 22:28 15,3 C 13,9 C 83 % 0 lf 1017,2 hPa 0,0 l/m 0 min 0 min 0 W/m 8,4 km/h (2 Bft)
18.08.2015 22:30 15,3 C 13,9 C 83 % 0 lf 1017,2 hPa 0,0 l/m 0 min 0 min 0 W/m 6,3 km/h (2 Bft)
18.08.2015 22:32 15,2 C 13,9 C 83 % 0 lf 1017,1 hPa 0,0 l/m 0 min 0 min 0 W/m 4,2 km/h (1 Bft)
18.08.2015 22:34 15,2 C 13,9 C 83 % 0 lf 1017,2 hPa 0,0 l/m 0 min 0 min 0 W/m 6,3 km/h (2 Bft)
18.08.2015 22:36 15,2 C 13,9 C 83 % 0 lf 1017,2 hPa 0,0 l/m 0 min 0 min 0 W/m 8,4 km/h (2 Bft)
18.08.2015 22:38 15,2 C 13,9 C 83 % 0 lf 1017,2 hPa 0,0 l/m 0 min 0 min 0 W/m 10,5 km/h (2 Bft)
18.08.2015 22:40 15,2 C 13,9 C 83 % 0 lf 1017,2 hPa 0,0 l/m 0 min 0 min 0 W/m 8,4 km/h (2 Bft)
18.08.2015 22:42 15,2 C 13,9 C 83 % 0 lf 1017,2 hPa 0,0 l/m 0 min 0 min 0 W/m 6,3 km/h (2 Bft)
18.08.2015 22:44 15,2 C 13,9 C 83 % 0 lf 1017,2 hPa 0,0 l/m 0 min 0 min 0 W/m 6,3 km/h (2 Bft)
18.08.2015 22:46 15,2 C 13,9 C 83 % 0 lf 1017,2 hPa 0,0 l/m 0 min 0 min 0 W/m 6,3 km/h (2 Bft)
18.08.2015 22:48 15,1 C 13,9 C 83 % 0 lf 1017,3 hPa 0,0 l/m 0 min 0 min 0 W/m 6,3 km/h (2 Bft)
18.08.2015 22:50 15,1 C 13,9 C 83 % 0 lf 1017,2 hPa 0,0 l/m 0 min 0 min 0 W/m 6,3 km/h (2 Bft)
18.08.2015 22:52 15,1 C 13,9 C 83 % 0 lf 1017,2 hPa 0,0 l/m 0 min 0 min 0 W/m 6,3 km/h (2 Bft)
18.08.2015 22:54 15,1 C 13,9 C 83 % 0 lf 1017,2 hPa 0,0 l/m 0 min 0 min 0 W/m 8,4 km/h (2 Bft)
18.08.2015 22:56 15,1 C 13,9 C 83 % 0 lf 1017,3 hPa 0,0 l/m 0 min 0 min 0 W/m 4,2 km/h (1 Bft)
18.08.2015 22:58 15,1 C 13,9 C 83 % 0 lf 1017,4 hPa 0,0 l/m 0 min 0 min 0 W/m 6,3 km/h (2 Bft)
18.08.2015 23:00 15,1 C 13,9 C 83 % 0 lf 1017,3 hPa 0,0 l/m 0 min 0 min 0 W/m 4,2 km/h (1 Bft)
18.08.2015 23:02 15,0 C 13,9 C 83 % 0 lf 1017,4 hPa 0,0 l/m 0 min 0 min 0 W/m 8,4 km/h (2 Bft)
18.08.2015 23:04 15,0 C 13,9 C 83 % 0 lf 1017,4 hPa 0,0 l/m 0 min 0 min 0 W/m 6,3 km/h (2 Bft)
18.08.2015 23:06 15,0 C 13,3 C 83 % 0 lf 1017,4 hPa 0,0 l/m 0 min 0 min 0 W/m 6,3 km/h (2 Bft)
18.08.2015 23:08 15,0 C 13,3 C 83 % 0 lf 1017,4 hPa 0,0 l/m 0 min 0 min 0 W/m 6,3 km/h (2 Bft)
18.08.2015 23:10 15,0 C 13,3 C 83 % 0 lf 1017,4 hPa 0,0 l/m 0 min 0 min 0 W/m 6,3 km/h (2 Bft)
18.08.2015 23:12 15,0 C 13,3 C 83 % 0 lf 1017,4 hPa 0,0 l/m 0 min 0 min 0 W/m 6,3 km/h (2 Bft)
18.08.2015 23:14 14,9 C 13,3 C 83 % 0 lf 1017,4 hPa 0,0 l/m 0 min 0 min 0 W/m 8,4 km/h (2 Bft)
18.08.2015 23:16 14,9 C 13,3 C 83 % 0 lf 1017,4 hPa 0,0 l/m 0 min 0 min 0 W/m 4,2 km/h (1 Bft)
18.08.2015 23:18 14,9 C 13,3 C 83 % 0 lf 1017,4 hPa 0,0 l/m 0 min 0 min 0 W/m 6,3 km/h (2 Bft)
18.08.2015 23:20 14,9 C 13,3 C 83 % 0 lf 1017,4 hPa 0,0 l/m 0 min 0 min 0 W/m 6,3 km/h (2 Bft)
18.08.2015 23:22 14,9 C 13,3 C 83 % 0 lf 1017,4 hPa 0,0 l/m 0 min 0 min 0 W/m 6,3 km/h (2 Bft)
18.08.2015 23:24 14,9 C 13,3 C 83 % 0 lf 1017,4 hPa 0,0 l/m 0 min 0 min 0 W/m 6,3 km/h (2 Bft)
18.08.2015 23:26 14,9 C 13,3 C 83 % 0 lf 1017,5 hPa 0,0 l/m 0 min 0 min 0 W/m 6,3 km/h (2 Bft)
18.08.2015 23:28 14,9 C 13,3 C 83 % 0 lf 1017,4 hPa 0,0 l/m 0 min 0 min 0 W/m 4,2 km/h (1 Bft)
18.08.2015 23:30 14,9 C 13,3 C 83 % 0 lf 1017,5 hPa 0,0 l/m 0 min 0 min 0 W/m 4,2 km/h (1 Bft)
18.08.2015 23:32 14,9 C 13,3 C 83 % 0 lf 1017,5 hPa 0,0 l/m 0 min 0 min 0 W/m 4,2 km/h (1 Bft)
18.08.2015 23:34 14,9 C 13,3 C 83 % 0 lf 1017,5 hPa 0,0 l/m 0 min 0 min 0 W/m 4,2 km/h (1 Bft)
18.08.2015 23:36 14,9 C 13,3 C 83 % 0 lf 1017,6 hPa 0,0 l/m 0 min 0 min 0 W/m 8,4 km/h (2 Bft)
18.08.2015 23:38 14,8 C 13,3 C 83 % 0 lf 1017,6 hPa 0,0 l/m 0 min 0 min 0 W/m 6,3 km/h (2 Bft)
18.08.2015 23:40 14,8 C 13,3 C 83 % 0 lf 1017,6 hPa 0,0 l/m 0 min 0 min 0 W/m 4,2 km/h (1 Bft)
18.08.2015 23:42 14,8 C 13,3 C 83 % 0 lf 1017,5 hPa 0,0 l/m 0 min 0 min 0 W/m 6,3 km/h (2 Bft)
18.08.2015 23:44 14,8 C 13,3 C 83 % 0 lf 1017,5 hPa 0,0 l/m 0 min 0 min 0 W/m 4,2 km/h (1 Bft)
18.08.2015 23:46 14,8 C 13,3 C 83 % 0 lf 1017,6 hPa 0,0 l/m 0 min 0 min 0 W/m 4,2 km/h (1 Bft)
18.08.2015 23:48 14,8 C 12,8 C 83 % 0 lf 1017,6 hPa 0,0 l/m 0 min 0 min 0 W/m 4,2 km/h (1 Bft)
18.08.2015 23:50 14,8 C 12,8 C 83 % 0 lf 1017,6 hPa 0,0 l/m 0 min 0 min 0 W/m 4,2 km/h (1 Bft)
18.08.2015 23:52 14,8 C 12,8 C 84 % 0 lf 1017,6 hPa 0,0 l/m 0 min 0 min 0 W/m 4,2 km/h (1 Bft)
18.08.2015 23:54 14,8 C 12,8 C 84 % 0 lf 1017,6 hPa 0,0 l/m 0 min 0 min 0 W/m 4,2 km/h (1 Bft)
18.08.2015 23:56 14,7 C 12,2 C 84 % 0 lf 1017,6 hPa 0,0 l/m 0 min 0 min 0 W/m 6,3 km/h (2 Bft)
18.08.2015 23:58 14,7 C 12,2 C 84 % 0 lf 1017,6 hPa 0,0 l/m 0 min 0 min 0 W/m 4,2 km/h (1 Bft)
_ Min-Zeit 05:42 02:14 16:58 09:12 03:14 - - - - 17:52
Minimum _ 12,3 C 11,7 C 73 % 0 lf 1011,8 hPa - - - - 2,1 km/h (1 Bft)
_ Max-Zeit 17:00 16:34 00:00 00:00 23:36 01:12 08:40 00:00 14:50 10:20
Maximum _ 19,2 C 19,4 C 99 % 15 lf 1017,6 hPa 0,2 l/m 2 min 2 min 909 W/m 29,3 km/h
NW (5 Bft)
Durchschnitt _ 15,0 C 14,1 C 89 % 5 lf 1014,1 hPa #0,6 l/m #2:02 h #3:32 h 176 W/m 13,8 km/h (3 Bft)
© 2015 W. Hausmann